
Distance (Route):
Temperature : -45.2°C
Humidity : 3.5%
Pressure : 219.0hPa| Receiver | Frames | First received | Last received |
|---|---|---|---|
| PU1XMG-16 | 559 | 2026-09-02 23:34:21 | 2026-09-03 01:09:09 |
| Receiver | Date | Latitude | Longitude | Direction | Speed | Altitude | Climb | Temperature | Humidity | Pressure | Voltage | Killtimer | Uptime | BKT | XDATA |
|---|---|---|---|---|---|---|---|---|---|---|---|---|---|---|---|
| PU1XMG-16 | 2026-09-03 01:09:09 | -22.57283 | -42.04771 | 75° | 164km/h | 11781m | -10.9m/s | -45.2°C | 3.5% | 219.0hPa | 0V | 00:00:00 | 00:00:00 | 00:00:00 | |
| PU1XMG-16 | 2026-09-03 01:09:01 | -22.57355 | -42.05077 | 77° | 166km/h | 11852m | -10.7m/s | -45.6°C | 3.6% | 216.7hPa | 0V | 00:00:00 | 00:00:00 | 00:00:00 | |
| PU1XMG-16 | 2026-09-03 01:08:55 | -22.57412 | -42.05341 | 78° | 166km/h | 11914m | -11.7m/s | -46.2°C | 3.7% | 214.8hPa | 0V | 00:00:00 | 00:00:00 | 00:00:00 | |
| PU1XMG-16 | 2026-09-03 01:08:51 | -22.57457 | -42.05560 | 79° | 164km/h | 11970m | -10.8m/s | -46.6°C | 3.9% | 213.0hPa | 0V | 00:00:00 | 00:00:00 | 00:00:00 | |
| PU1XMG-16 | 2026-09-03 01:08:41 | -22.57536 | -42.06001 | 81° | 162km/h | 12078m | -10.0m/s | -47.6°C | 4.2% | 209.5hPa | 0V | 00:00:00 | 00:00:00 | 00:00:00 | |
| PU1XMG-16 | 2026-09-03 01:08:34 | -22.57578 | -42.06264 | 81° | 166km/h | 12150m | -11.7m/s | -48.2°C | 4.3% | 207.3hPa | 0V | 00:00:00 | 00:00:00 | 00:00:00 | |
| PU1XMG-16 | 2026-09-03 01:08:29 | -22.57620 | -42.06529 | 82° | 166km/h | 12215m | -12.6m/s | -48.8°C | 4.5% | 205.3hPa | 0V | 08:11:00 | 00:00:00 | 00:00:00 | |
| PU1XMG-16 | 2026-09-03 01:08:21 | -22.57668 | -42.06839 | 82° | 164km/h | 12292m | -10.0m/s | -49.5°C | 4.9% | 202.9hPa | 0V | 08:11:00 | 00:00:00 | 00:00:00 | |
| PU1XMG-16 | 2026-09-03 01:08:16 | -22.57701 | -42.07059 | 82° | 164km/h | 12343m | -10.7m/s | -50.0°C | 5.0% | 201.3hPa | 0V | 08:11:00 | 00:00:00 | 00:00:00 | |
| PU1XMG-16 | 2026-09-03 01:08:12 | -22.57732 | -42.07280 | 82° | 164km/h | 12396m | -9.9m/s | -50.4°C | 5.3% | 199.7hPa | 0V | 08:11:00 | 00:00:00 | 00:00:00 | |
| PU1XMG-16 | 2026-09-03 01:08:05 | -22.57769 | -42.07547 | 82° | 164km/h | 12450m | -8.7m/s | -50.9°C | 5.6% | 198.0hPa | 0V | 08:11:00 | 00:00:00 | 00:00:00 | |
| PU1XMG-16 | 2026-09-03 01:07:58 | -22.57814 | -42.07856 | 82° | 162km/h | 12518m | -9.4m/s | -51.5°C | 5.7% | 196.0hPa | 0V | 08:11:00 | 00:00:00 | 00:00:00 | |
| PU1XMG-16 | 2026-09-03 01:07:51 | -22.57858 | -42.08165 | 82° | 164km/h | 12575m | -7.6m/s | -52.1°C | 6.1% | 194.2hPa | 0V | 08:11:00 | 00:00:00 | 00:00:00 | |
| PU1XMG-16 | 2026-09-03 01:07:46 | -22.57898 | -42.08430 | 82° | 164km/h | 12620m | -7.4m/s | -52.5°C | 6.3% | 192.8hPa | 0V | 08:11:00 | 00:00:00 | 00:00:00 | |
| PU1XMG-16 | 2026-09-03 01:07:38 | -22.57950 | -42.08784 | 82° | 164km/h | 12681m | -7.4m/s | -53.1°C | 6.7% | 191.0hPa | 0V | 08:12:00 | 00:00:00 | 00:00:00 | |
| PU1XMG-16 | 2026-09-03 01:07:33 | -22.57981 | -42.09005 | 82° | 162km/h | 12718m | -7.5m/s | -53.4°C | 6.8% | 189.9hPa | 0V | 08:12:00 | 00:00:00 | 00:00:00 | |
| PU1XMG-16 | 2026-09-03 01:07:25 | -22.58025 | -42.09315 | 83° | 164km/h | 12769m | -7.5m/s | -53.8°C | 7.1% | 188.4hPa | 0V | 08:12:00 | 00:00:00 | 00:00:00 | |
| PU1XMG-16 | 2026-09-03 01:07:20 | -22.58062 | -42.09581 | 82° | 164km/h | 12814m | -7.0m/s | -54.2°C | 7.3% | 187.1hPa | 0V | 08:12:00 | 00:00:00 | 00:00:00 | |
| PU1XMG-16 | 2026-09-03 01:07:14 | -22.58100 | -42.09848 | 82° | 164km/h | 12857m | -7.1m/s | -54.5°C | 7.7% | 185.9hPa | 0V | 08:12:00 | 00:00:00 | 00:00:00 | |
| PU1XMG-16 | 2026-09-03 01:07:07 | -22.58138 | -42.10116 | 82° | 164km/h | 12901m | -7.7m/s | -54.9°C | 8.0% | 184.6hPa | 0V | 08:12:00 | 00:00:00 | 00:00:00 | |
| PU1XMG-16 | 2026-09-03 01:07:02 | -22.58176 | -42.10384 | 82° | 164km/h | 12947m | -7.8m/s | -55.3°C | 8.4% | 183.3hPa | 0V | 08:12:00 | 00:00:00 | 00:00:00 | |
| PU1XMG-16 | 2026-09-03 01:06:56 | -22.58208 | -42.10608 | 82° | 166km/h | 12985m | -7.1m/s | -55.7°C | 8.7% | 182.2hPa | 0V | 08:12:00 | 00:00:00 | 00:00:00 | |
| PU1XMG-16 | 2026-09-03 01:06:51 | -22.58247 | -42.10876 | 82° | 166km/h | 13029m | -7.6m/s | -56.1°C | 9.0% | 180.9hPa | 0V | 08:12:00 | 00:00:00 | 00:00:00 | |
| PU1XMG-16 | 2026-09-03 01:06:44 | -22.58286 | -42.11145 | 82° | 166km/h | 13075m | -7.7m/s | -56.5°C | 9.3% | 179.6hPa | 0V | 00:00:00 | 00:00:00 | 00:00:00 | |
| PU1XMG-16 | 2026-09-03 01:06:39 | -22.58318 | -42.11370 | 82° | 166km/h | 13114m | -8.3m/s | -56.9°C | 9.7% | 178.5hPa | 0V | 00:00:00 | 00:00:00 | 00:00:00 | |
| PU1XMG-16 | 2026-09-03 01:06:34 | -22.58356 | -42.11638 | 83° | 168km/h | 13159m | -7.5m/s | -57.3°C | 10.4% | 177.3hPa | 0V | 00:00:00 | 00:00:00 | 00:00:00 | |
| PU1XMG-16 | 2026-09-03 01:06:28 | -22.58395 | -42.11910 | 82° | 168km/h | 13205m | -8.1m/s | -57.7°C | 10.7% | 175.9hPa | 0V | 00:00:00 | 00:00:00 | 00:00:00 | |
| PU1XMG-16 | 2026-09-03 01:06:20 | -22.58447 | -42.12273 | 82° | 168km/h | 13282m | -9.8m/s | -58.3°C | 11.3% | 173.9hPa | 0V | 00:00:00 | 00:00:00 | 00:00:00 | |
| PU1XMG-16 | 2026-09-03 01:06:12 | -22.58488 | -42.12591 | 83° | 168km/h | 13350m | -9.6m/s | -58.9°C | 11.8% | 172.0hPa | 0V | 00:00:00 | 00:00:00 | 00:00:00 | |
| PU1XMG-16 | 2026-09-03 01:06:06 | -22.58526 | -42.12908 | 84° | 166km/h | 13417m | -9.6m/s | -59.5°C | 12.4% | 170.2hPa | 0V | 00:00:00 | 00:00:00 | 00:00:00 | |
| PU1XMG-16 | 2026-09-03 01:05:58 | -22.58562 | -42.13226 | 84° | 168km/h | 13483m | -9.7m/s | -60.0°C | 12.9% | 168.4hPa | 0V | 00:00:00 | 00:00:00 | 00:00:00 | |
| PU1XMG-16 | 2026-09-03 01:05:52 | -22.58597 | -42.13544 | 85° | 168km/h | 13550m | -9.5m/s | -60.5°C | 13.2% | 166.6hPa | 0V | 00:00:00 | 00:00:00 | 00:00:00 | |
| PU1XMG-16 | 2026-09-03 01:05:08 | -22.58698 | -42.15549 | 89° | 168km/h | 13944m | -8.4m/s | -63.7°C | 14.8% | 156.3hPa | 0V | 00:00:00 | 00:00:00 | 00:00:00 | |
| PU1XMG-16 | 2026-09-03 01:04:53 | -22.58714 | -42.16195 | 90° | 168km/h | 14067m | -9.1m/s | -64.8°C | 14.3% | 153.2hPa | 0V | 00:00:00 | 00:00:00 | 00:00:00 | |
| PU1XMG-16 | 2026-09-03 01:04:47 | -22.58719 | -42.16519 | 89° | 172km/h | 14130m | -9.0m/s | -65.4°C | 14.0% | 151.6hPa | 0V | 00:00:00 | 00:00:00 | 00:00:00 | |
| PU1XMG-16 | 2026-09-03 01:04:38 | -22.58732 | -42.16945 | 90° | 172km/h | 14210m | -9.0m/s | -66.1°C | 13.6% | 149.7hPa | 0V | 00:00:00 | 00:00:00 | 00:00:00 | |
| PU1XMG-16 | 2026-09-03 01:04:23 | -22.58763 | -42.17647 | 86° | 173km/h | 14344m | -9.1m/s | -66.4°C | 10.9% | 146.4hPa | 0V | 00:00:00 | 00:00:00 | 00:00:00 | |
| PU1XMG-16 | 2026-09-03 01:04:15 | -22.58787 | -42.17979 | 87° | 173km/h | 14408m | -9.1m/s | -66.7°C | 10.4% | 144.9hPa | 0V | 00:00:00 | 00:00:00 | 00:00:00 | |
| PU1XMG-16 | 2026-09-03 01:03:59 | -22.58830 | -42.18767 | 85° | 168km/h | 14563m | -8.9m/s | -67.3°C | 8.7% | 141.2hPa | 0V | 00:00:00 | 00:00:00 | 00:00:00 | |
| PU1XMG-16 | 2026-09-03 01:03:52 | -22.58870 | -42.19081 | 82° | 164km/h | 14628m | -9.5m/s | -66.9°C | 8.2% | 139.7hPa | 0V | 00:00:00 | 00:00:00 | 00:00:00 | |
| PU1XMG-16 | 2026-09-03 01:03:43 | -22.58940 | -42.19480 | 79° | 164km/h | 14712m | -9.4m/s | -67.1°C | 7.9% | 137.7hPa | 0V | 00:00:00 | 00:00:00 | 00:00:00 | |
| PU1XMG-16 | 2026-09-03 01:03:30 | -22.59042 | -42.19984 | 78° | 150km/h | 14825m | -9.5m/s | -67.5°C | 7.8% | 135.2hPa | 0V | 00:00:00 | 00:00:00 | 00:00:00 | |
| PU1XMG-16 | 2026-09-03 01:03:25 | -22.59093 | -42.20220 | 78° | 144km/h | 14882m | -9.1m/s | -67.5°C | 7.7% | 134.0hPa | 0V | 00:00:00 | 00:00:00 | 00:00:00 | |
| PU1XMG-16 | 2026-09-03 01:03:19 | -22.59133 | -42.20410 | 79° | 142km/h | 14929m | -9.3m/s | -67.5°C | 7.6% | 133.0hPa | 0V | 00:00:00 | 00:00:00 | 00:00:00 | |
| PU1XMG-16 | 2026-09-03 01:03:12 | -22.59187 | -42.20709 | 81° | 137km/h | 15005m | -9.5m/s | -67.8°C | 7.7% | 131.2hPa | 0V | 00:00:00 | 00:00:00 | 00:00:00 | |
| PU1XMG-16 | 2026-09-03 01:02:47 | -22.59275 | -42.21612 | 87° | 130km/h | 15247m | -9.7m/s | -68.8°C | 7.4% | 126.1hPa | 0V | 00:00:00 | 00:00:00 | 00:00:00 | |
| PU1XMG-16 | 2026-09-03 01:02:22 | -22.59254 | -42.22467 | 97° | 124km/h | 15493m | -10.1m/s | -68.8°C | 6.6% | 121.0hPa | 0V | 00:00:00 | 00:00:00 | 00:00:00 | |
| PU1XMG-16 | 2026-09-03 01:02:08 | -22.59200 | -42.22902 | 100° | 124km/h | 15622m | -10.1m/s | -69.9°C | 6.7% | 118.4hPa | 0V | 00:00:00 | 00:00:00 | 00:00:00 | |
| PU1XMG-16 | 2026-09-03 01:02:01 | -22.59160 | -42.23140 | 103° | 128km/h | 15691m | -9.8m/s | -70.5°C | 6.7% | 117.0hPa | 0V | 00:00:00 | 00:00:00 | 00:00:00 | |
| PU1XMG-16 | 2026-09-03 01:01:56 | -22.59119 | -42.23343 | 103° | 128km/h | 15751m | -10.0m/s | -70.8°C | 6.7% | 115.9hPa | 0V | 00:00:00 | 00:00:00 | 00:00:00 | |
| PU1XMG-16 | 2026-09-03 01:01:49 | -22.59073 | -42.23584 | 103° | 130km/h | 15819m | -9.9m/s | -71.3°C | 6.8% | 114.5hPa | 0V | 00:00:00 | 00:00:00 | 00:00:00 | |
| PU1XMG-16 | 2026-09-03 01:01:41 | -22.59018 | -42.23862 | 103° | 133km/h | 15898m | -10.0m/s | -72.0°C | 7.1% | 113.0hPa | 0V | 08:18:00 | 00:00:00 | 00:00:00 | |
| PU1XMG-16 | 2026-09-03 01:01:34 | -22.58980 | -42.24081 | 100° | 137km/h | 15958m | -10.0m/s | -72.4°C | 7.6% | 111.9hPa | 0V | 08:18:00 | 00:00:00 | 00:00:00 | |
| PU1XMG-16 | 2026-09-03 01:01:27 | -22.58951 | -42.24380 | 94° | 137km/h | 16037m | -10.1m/s | -72.4°C | 7.8% | 110.4hPa | 0V | 08:18:00 | 00:00:00 | 00:00:00 | |
| PU1XMG-16 | 2026-09-03 01:01:11 | -22.58975 | -42.24908 | 86° | 115km/h | 16187m | -10.2m/s | -70.9°C | 7.2% | 107.5hPa | 0V | 08:18:00 | 00:00:00 | 00:00:00 | |
| PU1XMG-16 | 2026-09-03 01:01:05 | -22.59001 | -42.25114 | 82° | 106km/h | 16258m | -10.4m/s | -70.2°C | 6.7% | 106.3hPa | 0V | 08:18:00 | 00:00:00 | 00:00:00 | |
| PU1XMG-16 | 2026-09-03 01:00:56 | -22.59038 | -42.25343 | 79° | 108km/h | 16339m | -10.2m/s | -68.6°C | 5.6% | 104.9hPa | 0V | 08:18:00 | 00:00:00 | 00:00:00 | |
| PU1XMG-16 | 2026-09-03 01:00:49 | -22.59088 | -42.25543 | 74° | 108km/h | 16411m | -10.0m/s | -69.0°C | 5.6% | 103.7hPa | 0V | 00:00:00 | 00:00:00 | 00:00:00 | |
| PU1XMG-16 | 2026-09-03 01:00:41 | -22.59169 | -42.25799 | 68° | 111km/h | 16502m | -10.2m/s | -69.0°C | 5.3% | 102.1hPa | 0V | 00:00:00 | 00:00:00 | 00:00:00 | |
| PU1XMG-16 | 2026-09-03 01:00:34 | -22.59237 | -42.25964 | 66° | 108km/h | 16564m | -10.1m/s | -69.3°C | 5.4% | 101.0hPa | 0V | 00:00:00 | 00:00:00 | 00:00:00 | |
| PU1XMG-16 | 2026-09-03 01:00:18 | -22.59427 | -42.26365 | 61° | 86km/h | 16740m | -10.3m/s | -69.2°C | 4.7% | 98.1hPa | 0V | 00:00:00 | 00:00:00 | 00:00:00 | |
| PU1XMG-16 | 2026-09-03 00:53:20 | -22.59234 | -42.30383 | 300° | 13km/h | 22003m | -16.1m/s | -59.4°C | 1.4% | 41.5hPa | 0V | 00:00:00 | 00:00:00 | 00:00:00 | |
| PU1XMG-16 | 2026-09-03 00:53:15 | -22.59243 | -42.30366 | 306° | 15km/h | 22078m | -13.4m/s | -59.7°C | 1.5% | 41.0hPa | 0V | 00:00:00 | 00:00:00 | 00:00:00 | |
| PU1XMG-16 | 2026-09-03 00:53:06 | -22.59280 | -42.30339 | 329° | 20km/h | 22201m | -12.5m/s | -60.2°C | 1.6% | 40.2hPa | 0V | 00:00:00 | 00:00:00 | 00:00:00 | |
| PU1XMG-16 | 2026-09-03 00:52:58 | -22.59301 | -42.30315 | 287° | 9km/h | 22304m | -12.0m/s | -60.1°C | 1.6% | 39.5hPa | 0V | 00:00:00 | 00:00:00 | 00:00:00 | |
| PU1XMG-16 | 2026-09-03 00:52:53 | -22.59299 | -42.30301 | 246° | 11km/h | 22362m | -11.5m/s | -60.1°C | 1.5% | 39.1hPa | 0V | 00:00:00 | 00:00:00 | 00:00:00 | |
| PU1XMG-16 | 2026-09-03 00:52:47 | -22.59289 | -42.30289 | 212° | 13km/h | 22420m | -11.8m/s | -60.3°C | 1.6% | 38.8hPa | 0V | 00:00:00 | 00:00:00 | 00:00:00 | |
| PU1XMG-16 | 2026-09-03 00:52:42 | -22.59271 | -42.30280 | 206° | 13km/h | 22491m | -12.5m/s | -60.7°C | 1.6% | 38.4hPa | 0V | 00:00:00 | 00:00:00 | 00:00:00 | |
| PU1XMG-16 | 2026-09-03 00:52:28 | -22.59205 | -42.30278 | 157° | 18km/h | 22666m | -12.7m/s | -61.0°C | 1.7% | 37.3hPa | 0V | 00:00:00 | 00:00:00 | 00:00:00 | |
| PU1XMG-16 | 2026-09-03 00:49:42 | -22.59358 | -42.31241 | 58° | 31km/h | 25475m | -21.8m/s | -50.8°C | 1.0% | 23.9hPa | 0V | 00:00:00 | 00:00:00 | 00:00:00 | |
| PU1XMG-16 | 2026-09-03 00:49:36 | -22.59370 | -42.31279 | 87° | 22km/h | 25589m | -20.7m/s | -50.5°C | 0.9% | 23.5hPa | 0V | 00:00:00 | 00:00:00 | 00:00:00 | |
| PU1XMG-16 | 2026-09-03 00:49:13 | -22.59427 | -42.31468 | 62° | 37km/h | 25978m | -19.7m/s | -50.7°C | 0.9% | 22.1hPa | 0V | 00:00:00 | 00:00:00 | 00:00:00 | |
| PU1XMG-16 | 2026-09-03 00:46:31 | -22.60209 | -42.32679 | 49° | 44km/h | 26110m | 4.8m/s | -50.9°C | 0.9% | 21.6hPa | 0V | 00:00:00 | 00:00:00 | 00:00:00 | |
| PU1XMG-16 | 2026-09-03 00:46:17 | -22.60283 | -42.32798 | 61° | 40km/h | 26027m | 5.6m/s | -50.9°C | 1.0% | 21.9hPa | 0V | 00:00:00 | 00:00:00 | 00:00:00 | |
| PU1XMG-16 | 2026-09-03 00:45:29 | -22.60411 | -42.33155 | 71° | 27km/h | 25729m | 5.2m/s | -50.3°C | 0.9% | 22.9hPa | 0V | 00:00:00 | 00:00:00 | 00:00:00 | |
| PU1XMG-16 | 2026-09-03 00:38:52 | -22.61254 | -42.35898 | 120° | 35km/h | 23153m | 4.8m/s | -58.7°C | 1.4% | 34.4hPa | 0V | 00:00:00 | 00:00:00 | 00:00:00 | |
| PU1XMG-16 | 2026-09-03 00:38:37 | -22.61189 | -42.35990 | 133° | 24km/h | 23058m | 5.7m/s | -59.7°C | 1.4% | 35.0hPa | 0V | 00:00:00 | 00:00:00 | 00:00:00 | |
| PU1XMG-16 | 2026-09-03 00:38:25 | -22.61146 | -42.36029 | 104° | 5km/h | 22980m | 3.6m/s | -60.1°C | 1.5% | 35.4hPa | 0V | 00:00:00 | 00:00:00 | 00:00:00 | |
| PU1XMG-16 | 2026-09-03 00:37:29 | -22.61044 | -42.36003 | 160° | 11km/h | 22629m | 5.4m/s | -59.7°C | 1.4% | 37.5hPa | 0V | 00:00:00 | 00:00:00 | 00:00:00 | |
| PU1XMG-16 | 2026-09-03 00:36:23 | -22.60939 | -42.35885 | 308° | 22km/h | 22214m | 7.4m/s | -59.7°C | 1.4% | 40.1hPa | 0V | 00:00:00 | 00:00:00 | 00:00:00 | |
| PU1XMG-16 | 2026-09-03 00:36:19 | -22.60961 | -42.35863 | 337° | 22km/h | 22183m | 7.9m/s | -59.6°C | 1.4% | 40.3hPa | 0V | 00:00:00 | 00:00:00 | 00:00:00 | |
| PU1XMG-16 | 2026-09-03 00:36:13 | -22.60991 | -42.35861 | 350° | 20km/h | 22145m | 5.9m/s | -59.5°C | 1.5% | 40.5hPa | 0V | 00:00:00 | 00:00:00 | 00:00:00 | |
| PU1XMG-16 | 2026-09-03 00:36:03 | -22.61031 | -42.35829 | 353° | 16km/h | 22089m | 6.6m/s | -59.3°C | 1.4% | 40.9hPa | 0V | 00:00:00 | 00:00:00 | 00:00:00 | |
| PU1XMG-16 | 2026-09-03 00:35:57 | -22.61056 | -42.35825 | 322° | 16km/h | 22052m | 7.1m/s | -59.3°C | 1.4% | 41.1hPa | 0V | 00:00:00 | 00:00:00 | 00:00:00 | |
| PU1XMG-16 | 2026-09-03 00:35:47 | -22.61087 | -42.35792 | 347° | 11km/h | 21984m | 7.1m/s | -59.2°C | 1.4% | 41.6hPa | 0V | 00:00:00 | 00:00:00 | 00:00:00 | |
| PU1XMG-16 | 2026-09-03 00:35:40 | -22.61096 | -42.35779 | 296° | 15km/h | 21948m | 7.3m/s | -59.0°C | 1.4% | 41.8hPa | 0V | 00:00:00 | 00:00:00 | 00:00:00 | |
| PU1XMG-16 | 2026-09-03 00:35:27 | -22.61120 | -42.35748 | 320° | 15km/h | 21868m | 5.4m/s | -58.6°C | 1.4% | 42.4hPa | 0V | 00:00:00 | 00:00:00 | 00:00:00 | |
| PU1XMG-16 | 2026-09-03 00:35:19 | -22.61136 | -42.35725 | 348° | 5km/h | 21818m | 7.1m/s | -58.5°C | 1.4% | 42.7hPa | 0V | 00:00:00 | 00:00:00 | 00:00:00 | |
| PU1XMG-16 | 2026-09-03 00:35:14 | -22.61137 | -42.35719 | 258° | 15km/h | 21759m | 5.4m/s | -58.5°C | 1.4% | 42.9hPa | 0V | 00:00:00 | 00:00:00 | 00:00:00 | |
| PU1XMG-16 | 2026-09-03 00:35:06 | -22.61136 | -42.35701 | 241° | 7km/h | 21727m | 4.6m/s | -58.5°C | 1.4% | 43.3hPa | 0V | 00:00:00 | 00:00:00 | 00:00:00 | |
| PU1XMG-16 | 2026-09-03 00:35:00 | -22.61132 | -42.35700 | 168° | 5km/h | 21695m | 4.5m/s | -58.5°C | 1.4% | 43.5hPa | 0V | 00:00:00 | 00:00:00 | 00:00:00 | |
| PU1XMG-16 | 2026-09-03 00:34:55 | -22.61128 | -42.35691 | 259° | 15km/h | 21665m | 6.1m/s | -58.5°C | 1.4% | 43.8hPa | 0V | 00:00:00 | 00:00:00 | 00:00:00 | |
| PU1XMG-16 | 2026-09-03 00:34:49 | -22.61122 | -42.35658 | 225° | 13km/h | 21608m | 8.3m/s | -58.4°C | 1.4% | 44.0hPa | 0V | 00:00:00 | 00:00:00 | 00:00:00 | |
| PU1XMG-16 | 2026-09-03 00:34:43 | -22.61118 | -42.35652 | 283° | 9km/h | 21590m | 5.5m/s | -58.2°C | 1.4% | 44.3hPa | 0V | 00:00:00 | 00:00:00 | 00:00:00 | |
| PU1XMG-16 | 2026-09-03 00:34:34 | -22.61123 | -42.35611 | 255° | 18km/h | 21536m | 6.1m/s | -57.9°C | 1.3% | 44.7hPa | 0V | 00:00:00 | 00:00:00 | 00:00:00 | |
| PU1XMG-16 | 2026-09-03 00:34:28 | -22.61114 | -42.35592 | 242° | 9km/h | 21499m | 8.1m/s | -58.0°C | 1.4% | 45.0hPa | 0V | 00:00:00 | 00:00:00 | 00:00:00 | |
| PU1XMG-16 | 2026-09-03 00:34:22 | -22.61114 | -42.35569 | 282° | 22km/h | 21463m | 6.4m/s | -57.8°C | 1.3% | 45.2hPa | 0V | 00:00:00 | 00:00:00 | 00:00:00 | |
| PU1XMG-16 | 2026-09-03 00:34:15 | -22.61119 | -42.35546 | 318° | 7km/h | 21421m | 7.3m/s | -58.0°C | 1.3% | 45.5hPa | 0V | 00:00:00 | 00:00:00 | 00:00:00 | |
| PU1XMG-16 | 2026-09-03 00:34:08 | -22.61134 | -42.35519 | 297° | 16km/h | 21373m | 5.4m/s | -58.7°C | 1.4% | 45.9hPa | 0V | 00:00:00 | 00:00:00 | 00:00:00 | |
| PU1XMG-16 | 2026-09-03 00:31:13 | -22.61790 | -42.36365 | 85° | 35km/h | 20306m | 5.7m/s | -63.7°C | 2.0% | 54.5hPa | 0V | 00:00:00 | 00:00:00 | 00:00:00 | |
| PU1XMG-16 | 2026-09-03 00:31:08 | -22.61793 | -42.36436 | 84° | 51km/h | 20271m | 6.6m/s | -63.7°C | 1.9% | 54.9hPa | 0V | 00:00:00 | 00:00:00 | 00:00:00 | |
| PU1XMG-16 | 2026-09-03 00:30:47 | -22.61778 | -42.36683 | 96° | 42km/h | 20151m | 5.7m/s | -63.8°C | 2.0% | 55.9hPa | 0V | 00:00:00 | 00:00:00 | 00:00:00 | |
| PU1XMG-16 | 2026-09-03 00:30:40 | -22.61760 | -42.36759 | 108° | 35km/h | 20105m | 7.5m/s | -63.5°C | 2.0% | 56.4hPa | 0V | 00:00:00 | 00:00:00 | 00:00:00 | |
| PU1XMG-16 | 2026-09-03 00:30:32 | -22.61751 | -42.36832 | 99° | 40km/h | 20064m | 6.4m/s | -63.2°C | 2.0% | 56.8hPa | 0V | 00:00:00 | 00:00:00 | 00:00:00 | |
| PU1XMG-16 | 2026-09-03 00:30:26 | -22.61736 | -42.36893 | 108° | 37km/h | 20029m | 7.4m/s | -63.0°C | 1.9% | 57.1hPa | 0V | 00:00:00 | 00:00:00 | 00:00:00 | |
| PU1XMG-16 | 2026-09-03 00:30:18 | -22.61727 | -42.36969 | 88° | 35km/h | 19982m | 4.7m/s | -63.0°C | 1.9% | 57.5hPa | 0V | 00:00:00 | 00:00:00 | 00:00:00 | |
| PU1XMG-16 | 2026-09-03 00:30:06 | -22.61711 | -42.37077 | 94° | 37km/h | 19915m | 7.4m/s | -63.3°C | 2.0% | 58.1hPa | 0V | 00:00:00 | 00:00:00 | 00:00:00 | |
| PU1XMG-16 | 2026-09-03 00:29:52 | -22.61709 | -42.37210 | 84° | 44km/h | 19835m | 4.9m/s | -62.8°C | 2.1% | 58.9hPa | 0V | 00:00:00 | 00:00:00 | 00:00:00 | |
| PU1XMG-16 | 2026-09-03 00:29:43 | -22.61718 | -42.37300 | 75° | 35km/h | 19781m | 7.8m/s | -62.5°C | 2.1% | 59.4hPa | 0V | 00:00:00 | 00:00:00 | 00:00:00 | |
| PU1XMG-16 | 2026-09-03 00:29:01 | -22.61875 | -42.37664 | 63° | 44km/h | 19537m | 5.5m/s | -63.2°C | 2.1% | 61.8hPa | 0V | 00:00:00 | 00:00:00 | 00:00:00 | |
| PU1XMG-16 | 2026-09-03 00:23:49 | -22.60468 | -42.41247 | 127° | 60km/h | 17698m | 5.0m/s | -63.0°C | 3.5% | 83.6hPa | 0V | 00:00:00 | 00:00:00 | 00:00:00 | |
| PU1XMG-16 | 2026-09-03 00:22:26 | -22.60361 | -42.42501 | 78° | 75km/h | 17184m | 3.2m/s | -68.2°C | 6.5% | 90.9hPa | 0V | 00:00:00 | 00:00:00 | 00:00:00 | |
| PU1XMG-16 | 2026-09-03 00:22:16 | -22.60401 | -42.42701 | 82° | 69km/h | 17128m | 6.4m/s | -68.6°C | 6.8% | 91.8hPa | 0V | 00:00:00 | 00:00:00 | 00:00:00 | |
| PU1XMG-16 | 2026-09-03 00:22:09 | -22.60423 | -42.42840 | 79° | 60km/h | 17083m | 4.9m/s | -68.9°C | 6.9% | 92.5hPa | 0V | 00:00:00 | 00:00:00 | 00:00:00 | |
| PU1XMG-16 | 2026-09-03 00:22:02 | -22.60447 | -42.42941 | 74° | 68km/h | 17051m | 6.0m/s | -69.0°C | 7.1% | 93.0hPa | 0V | 00:00:00 | 00:00:00 | 00:00:00 | |
| PU1XMG-16 | 2026-09-03 00:21:51 | -22.60504 | -42.43151 | 73° | 75km/h | 16990m | 3.0m/s | -69.0°C | 7.0% | 93.9hPa | 0V | 00:00:00 | 00:00:00 | 00:00:00 | |
| PU1XMG-16 | 2026-09-03 00:21:45 | -22.60551 | -42.43292 | 69° | 86km/h | 16952m | 6.9m/s | -69.4°C | 7.3% | 94.5hPa | 0V | 00:00:00 | 00:00:00 | 00:00:00 | |
| PU1XMG-16 | 2026-09-03 00:21:38 | -22.60609 | -42.43447 | 68° | 89km/h | 16913m | 5.6m/s | -69.5°C | 7.7% | 95.2hPa | 0V | 00:00:00 | 00:00:00 | 00:00:00 | |
| PU1XMG-16 | 2026-09-03 00:21:23 | -22.60734 | -42.43757 | 68° | 84km/h | 16839m | 4.3m/s | -69.5°C | 7.8% | 96.4hPa | 0V | 00:00:00 | 00:00:00 | 00:00:00 | |
| PU1XMG-16 | 2026-09-03 00:21:19 | -22.60778 | -42.43860 | 66° | 84km/h | 16813m | 3.2m/s | -69.4°C | 7.9% | 96.8hPa | 0V | 00:00:00 | 00:00:00 | 00:00:00 | |
| PU1XMG-16 | 2026-09-03 00:21:13 | -22.60840 | -42.43990 | 62° | 95km/h | 16780m | 4.1m/s | -69.4°C | 7.9% | 97.3hPa | 0V | 00:00:00 | 00:00:00 | 00:00:00 | |
| PU1XMG-16 | 2026-09-03 00:21:06 | -22.60918 | -42.44140 | 63° | 89km/h | 16743m | 4.5m/s | -69.3°C | 7.8% | 97.9hPa | 0V | 00:00:00 | 00:00:00 | 00:00:00 | |
| PU1XMG-16 | 2026-09-03 00:20:58 | -22.60997 | -42.44297 | 62° | 93km/h | 16703m | 5.2m/s | -69.4°C | 7.8% | 98.6hPa | 0V | 00:00:00 | 00:00:00 | 00:00:00 | |
| PU1XMG-16 | 2026-09-03 00:20:52 | -22.61069 | -42.44432 | 62° | 99km/h | 16670m | 5.5m/s | -69.4°C | 7.9% | 99.1hPa | 0V | 00:00:00 | 00:00:00 | 00:00:00 | |
| PU1XMG-16 | 2026-09-03 00:20:47 | -22.61127 | -42.44551 | 65° | 97km/h | 16642m | 6.5m/s | -69.4°C | 8.1% | 99.6hPa | 0V | 00:00:00 | 00:00:00 | 00:00:00 | |
| PU1XMG-16 | 2026-09-03 00:20:41 | -22.61195 | -42.44699 | 62° | 108km/h | 16609m | 4.0m/s | -69.6°C | 8.0% | 100.1hPa | 0V | 00:00:00 | 00:00:00 | 00:00:00 | |
| PU1XMG-16 | 2026-09-03 00:20:36 | -22.61260 | -42.44834 | 65° | 113km/h | 16582m | 5.8m/s | -69.7°C | 8.0% | 100.6hPa | 0V | 00:00:00 | 00:00:00 | 00:00:00 | |
| PU1XMG-16 | 2026-09-03 00:20:29 | -22.61333 | -42.45027 | 71° | 108km/h | 16544m | 3.4m/s | -69.6°C | 8.5% | 101.3hPa | 0V | 00:00:00 | 00:00:00 | 00:00:00 | |
| PU1XMG-16 | 2026-09-03 00:20:23 | -22.61387 | -42.45198 | 73° | 111km/h | 16518m | 4.0m/s | -69.6°C | 8.4% | 101.9hPa | 0V | 00:00:00 | 00:00:00 | 00:00:00 | |
| PU1XMG-16 | 2026-09-03 00:20:17 | -22.61437 | -42.45372 | 73° | 108km/h | 16494m | 7.3m/s | -69.7°C | 8.4% | 102.4hPa | 0V | 00:00:00 | 00:00:00 | 00:00:00 | |
| PU1XMG-16 | 2026-09-03 00:20:09 | -22.61495 | -42.45594 | 81° | 115km/h | 16429m | 5.1m/s | -69.5°C | 8.2% | 103.2hPa | 0V | 00:00:00 | 00:00:00 | 00:00:00 | |
| PU1XMG-16 | 2026-09-03 00:20:04 | -22.61525 | -42.45746 | 77° | 110km/h | 16402m | 3.8m/s | -69.3°C | 8.1% | 103.7hPa | 0V | 00:00:00 | 00:00:00 | 00:00:00 | |
| PU1XMG-16 | 2026-09-03 00:19:58 | -22.61558 | -42.45914 | 81° | 106km/h | 16365m | 6.4m/s | -69.2°C | 7.8% | 104.3hPa | 0V | 00:00:00 | 00:00:00 | 00:00:00 | |
| PU1XMG-16 | 2026-09-03 00:19:48 | -22.61608 | -42.46199 | 78° | 97km/h | 16313m | 5.5m/s | -70.2°C | 8.0% | 105.2hPa | 0V | 00:00:00 | 00:00:00 | 00:00:00 | |
| PU1XMG-16 | 2026-09-03 00:19:41 | -22.61633 | -42.46382 | 83° | 104km/h | 16279m | 6.1m/s | -70.6°C | 8.1% | 105.8hPa | 0V | 00:00:00 | 00:00:00 | 00:00:00 | |
| PU1XMG-16 | 2026-09-03 00:19:37 | -22.61651 | -42.46526 | 85° | 106km/h | 16251m | 5.6m/s | -70.8°C | 8.0% | 106.3hPa | 0V | 00:00:00 | 00:00:00 | 00:00:00 | |
| PU1XMG-16 | 2026-09-03 00:19:24 | -22.61684 | -42.46896 | 81° | 117km/h | 16185m | 6.7m/s | -71.3°C | 7.9% | 107.5hPa | 0V | 00:00:00 | 00:00:00 | 00:00:00 | |
| PU1XMG-16 | 2026-09-03 00:19:16 | -22.61705 | -42.47162 | 92° | 131km/h | 16136m | 6.9m/s | -71.8°C | 8.1% | 108.5hPa | 0V | 00:00:00 | 00:00:00 | 00:00:00 | |
| PU1XMG-16 | 2026-09-03 00:19:10 | -22.61312 | -42.53541 | 84° | 137km/h | 15019m | 9.3m/s | -72.1°C | 8.0% | 109.3hPa | 0V | 00:00:00 | 00:00:00 | 00:00:00 | |
| PU1XMG-16 | 2026-09-03 00:16:09 | -22.61312 | -42.53541 | 84° | 137km/h | 15019m | 9.3m/s | -67.9°C | 10.1% | 130.8hPa | 0V | 00:00:00 | 00:00:00 | 00:00:00 | |
| PU1XMG-16 | 2026-09-03 00:15:57 | -22.61392 | -42.53977 | 76° | 139km/h | 14935m | 5.5m/s | -67.8°C | 10.7% | 132.6hPa | 0V | 00:00:00 | 00:00:00 | 00:00:00 | |
| PU1XMG-16 | 2026-09-03 00:15:51 | -22.61445 | -42.54206 | 79° | 146km/h | 14902m | 4.8m/s | -67.6°C | 11.1% | 133.4hPa | 0V | 00:00:00 | 00:00:00 | 00:00:00 | |
| PU1XMG-16 | 2026-09-03 00:15:44 | -22.61503 | -42.54507 | 79° | 141km/h | 14861m | 4.9m/s | -67.5°C | 11.8% | 134.4hPa | 0V | 00:00:00 | 00:00:00 | 00:00:00 | |
| PU1XMG-16 | 2026-09-03 00:15:39 | -22.61537 | -42.54706 | 81° | 157km/h | 14832m | 4.6m/s | -67.3°C | 12.3% | 135.0hPa | 0V | 00:00:00 | 00:00:00 | 00:00:00 | |
| PU1XMG-16 | 2026-09-03 00:15:33 | -22.61574 | -42.54910 | 77° | 141km/h | 14803m | 6.8m/s | -67.2°C | 12.1% | 135.6hPa | 0V | 00:00:00 | 00:00:00 | 00:00:00 | |
| PU1XMG-16 | 2026-09-03 00:15:26 | -22.61636 | -42.55171 | 77° | 153km/h | 14751m | 5.1m/s | -67.2°C | 13.0% | 136.7hPa | 0V | 00:00:00 | 00:00:00 | 00:00:00 | |
| PU1XMG-16 | 2026-09-03 00:15:21 | -22.61690 | -42.55426 | 79° | 161km/h | 14709m | 4.1m/s | -66.9°C | 13.4% | 137.7hPa | 0V | 00:00:00 | 00:00:00 | 00:00:00 | |
| PU1XMG-16 | 2026-09-03 00:15:09 | -22.61774 | -42.55887 | 79° | 166km/h | 14636m | 7.3m/s | -67.1°C | 15.0% | 139.4hPa | 0V | 00:00:00 | 00:00:00 | 00:00:00 | |
| PU1XMG-16 | 2026-09-03 00:14:56 | -22.61849 | -42.56453 | 86° | 166km/h | 14544m | 7.0m/s | -67.4°C | 16.1% | 141.5hPa | 0V | 00:00:00 | 00:00:00 | 00:00:00 | |
| PU1XMG-16 | 2026-09-03 00:14:51 | -22.61858 | -42.56684 | 90° | 170km/h | 14513m | 4.1m/s | -67.2°C | 16.7% | 142.2hPa | 0V | 00:00:00 | 00:00:00 | 00:00:00 | |
| PU1XMG-16 | 2026-09-03 00:14:44 | -22.61868 | -42.56995 | 88° | 161km/h | 14476m | 5.5m/s | -67.0°C | 17.1% | 143.1hPa | 0V | 00:00:00 | 00:00:00 | 00:00:00 | |
| PU1XMG-16 | 2026-09-03 00:14:36 | -22.61887 | -42.57362 | 90° | 173km/h | 14432m | 6.0m/s | -66.7°C | 17.1% | 144.2hPa | 0V | 00:00:00 | 00:00:00 | 00:00:00 | |
| PU1XMG-16 | 2026-09-03 00:14:30 | -22.61897 | -42.57638 | 86° | 161km/h | 14399m | 5.4m/s | -66.6°C | 17.8% | 145.0hPa | 0V | 00:00:00 | 00:00:00 | 00:00:00 | |
| PU1XMG-16 | 2026-09-03 00:14:18 | -22.61948 | -42.58191 | 90° | 166km/h | 14316m | 9.3m/s | -66.4°C | 17.0% | 147.0hPa | 0V | 00:00:00 | 00:00:00 | 00:00:00 | |
| PU1XMG-16 | 2026-09-03 00:14:12 | -22.61955 | -42.58462 | 88° | 168km/h | 14271m | 5.8m/s | -66.4°C | 17.3% | 148.0hPa | 0V | 00:00:00 | 00:00:00 | 00:00:00 | |
| PU1XMG-16 | 2026-09-03 00:13:58 | -22.61969 | -42.59097 | 89° | 168km/h | 14177m | 4.5m/s | -65.7°C | 16.6% | 150.3hPa | 0V | 00:00:00 | 00:00:00 | 00:00:00 | |
| PU1XMG-16 | 2026-09-03 00:13:52 | -22.61979 | -42.59372 | 87° | 164km/h | 14142m | 6.7m/s | -65.3°C | 15.6% | 151.2hPa | 0V | 00:00:00 | 00:00:00 | 00:00:00 | |
| PU1XMG-16 | 2026-09-03 00:13:39 | -22.61997 | -42.59960 | 87° | 166km/h | 14058m | 5.8m/s | -64.6°C | 15.0% | 153.3hPa | 0V | 00:00:00 | 00:00:00 | 00:00:00 | |
| PU1XMG-16 | 2026-09-03 00:13:32 | -22.62007 | -42.60285 | 91° | 168km/h | 14013m | 7.3m/s | -64.2°C | 14.2% | 154.2hPa | 0V | 00:00:00 | 00:00:00 | 00:00:00 | |
| PU1XMG-16 | 2026-09-03 00:13:25 | -22.62016 | -42.60605 | 87° | 168km/h | 13978m | 5.1m/s | -63.9°C | 13.7% | 155.2hPa | 0V | 00:00:00 | 00:00:00 | 00:00:00 | |
| PU1XMG-16 | 2026-09-03 00:13:17 | -22.62033 | -42.60973 | 89° | 170km/h | 13940m | 3.4m/s | -63.5°C | 13.8% | 156.3hPa | 0V | 00:00:00 | 00:00:00 | 00:00:00 | |
| PU1XMG-16 | 2026-09-03 00:13:11 | -22.62045 | -42.61250 | 87° | 168km/h | 13910m | 5.8m/s | -63.3°C | 13.4% | 157.1hPa | 0V | 00:00:00 | 00:00:00 | 00:00:00 | |
| PU1XMG-16 | 2026-09-03 00:13:05 | -22.62064 | -42.61525 | 87° | 170km/h | 13877m | 6.9m/s | -63.0°C | 12.7% | 158.0hPa | 0V | 00:00:00 | 00:00:00 | 00:00:00 | |
| PU1XMG-16 | 2026-09-03 00:12:59 | -22.62074 | -42.61803 | 90° | 168km/h | 13845m | 6.3m/s | -62.7°C | 12.7% | 158.8hPa | 0V | 00:00:00 | 00:00:00 | 00:00:00 | |
| PU1XMG-16 | 2026-09-03 00:12:54 | -22.62089 | -42.62028 | 85° | 166km/h | 13821m | 4.9m/s | -62.5°C | 12.4% | 159.4hPa | 0V | 00:00:00 | 00:00:00 | 00:00:00 | |
| PU1XMG-16 | 2026-09-03 00:12:49 | -22.62106 | -42.62258 | 88° | 172km/h | 13797m | 3.1m/s | -62.3°C | 12.2% | 160.1hPa | 0V | 00:00:00 | 00:00:00 | 00:00:00 | |
| PU1XMG-16 | 2026-09-03 00:12:43 | -22.62121 | -42.62530 | 87° | 159km/h | 13764m | 4.8m/s | -62.0°C | 11.9% | 160.9hPa | 0V | 00:00:00 | 00:00:00 | 00:00:00 | |
| PU1XMG-16 | 2026-09-03 00:12:38 | -22.62138 | -42.62750 | 85° | 162km/h | 13737m | 4.8m/s | -61.7°C | 11.6% | 161.6hPa | 0V | 00:00:00 | 00:00:00 | 00:00:00 | |
| PU1XMG-16 | 2026-09-03 00:12:33 | -22.62159 | -42.62974 | 86° | 168km/h | 13708m | 6.5m/s | -61.5°C | 11.4% | 162.4hPa | 0V | 00:00:00 | 00:00:00 | 00:00:00 | |
| PU1XMG-16 | 2026-09-03 00:12:28 | -22.62172 | -42.63201 | 88° | 166km/h | 13681m | 3.9m/s | -61.3°C | 11.6% | 163.0hPa | 0V | 00:00:00 | 00:00:00 | 00:00:00 | |
| PU1XMG-16 | 2026-09-03 00:12:23 | -22.62188 | -42.63424 | 84° | 166km/h | 13654m | 5.1m/s | -61.0°C | 11.2% | 163.8hPa | 0V | 00:00:00 | 00:00:00 | 00:00:00 | |
| PU1XMG-16 | 2026-09-03 00:12:17 | -22.62215 | -42.63696 | 85° | 168km/h | 13616m | 7.2m/s | -60.7°C | 10.5% | 164.7hPa | 0V | 00:00:00 | 00:00:00 | 00:00:00 | |
| PU1XMG-16 | 2026-09-03 00:12:12 | -22.62235 | -42.63923 | 86° | 164km/h | 13587m | 4.2m/s | -60.4°C | 10.5% | 165.5hPa | 0V | 00:00:00 | 00:00:00 | 00:00:00 | |
| PU1XMG-16 | 2026-09-03 00:12:06 | -22.62261 | -42.64189 | 85° | 162km/h | 13555m | 4.4m/s | -60.2°C | 10.3% | 166.3hPa | 0V | 00:00:00 | 00:00:00 | 00:00:00 | |
| PU1XMG-16 | 2026-09-03 00:12:00 | -22.62286 | -42.64455 | 86° | 162km/h | 13526m | 5.6m/s | -60.0°C | 10.2% | 167.2hPa | 0V | 00:00:00 | 00:00:00 | 00:00:00 | |
| PU1XMG-16 | 2026-09-03 00:11:53 | -22.62319 | -42.64770 | 83° | 168km/h | 13492m | 4.0m/s | -59.7°C | 9.9% | 168.1hPa | 0V | 00:00:00 | 00:00:00 | 00:00:00 | |
| PU1XMG-16 | 2026-09-03 00:11:48 | -22.62345 | -42.64992 | 85° | 164km/h | 13466m | 4.4m/s | -59.5°C | 9.8% | 168.8hPa | 0V | 00:00:00 | 00:00:00 | 00:00:00 | |
| PU1XMG-16 | 2026-09-03 00:11:42 | -22.62366 | -42.65261 | 85° | 166km/h | 13436m | 4.4m/s | -59.3°C | 9.8% | 169.6hPa | 0V | 00:00:00 | 00:00:00 | 00:00:00 | |
| PU1XMG-16 | 2026-09-03 00:11:36 | -22.62404 | -42.65527 | 82° | 161km/h | 13403m | 4.5m/s | -59.2°C | 9.8% | 170.4hPa | 0V | 00:00:00 | 00:00:00 | 00:00:00 | |
| PU1XMG-16 | 2026-09-03 00:11:29 | -22.62458 | -42.65975 | 82° | 166km/h | 13342m | 6.0m/s | -58.9°C | 9.5% | 171.6hPa | 0V | 00:00:00 | 00:00:00 | 00:00:00 | |
| PU1XMG-16 | 2026-09-03 00:11:23 | -22.62478 | -42.66108 | 81° | 162km/h | 13322m | 6.6m/s | -58.6°C | 9.3% | 172.7hPa | 0V | 00:00:00 | 00:00:00 | 00:00:00 | |
| PU1XMG-16 | 2026-09-03 00:11:18 | -22.62511 | -42.66328 | 83° | 166km/h | 13291m | 8.9m/s | -58.3°C | 9.2% | 173.5hPa | 0V | 00:00:00 | 00:00:00 | 00:00:00 | |
| PU1XMG-16 | 2026-09-03 00:11:13 | -22.62538 | -42.66553 | 83° | 162km/h | 13260m | 7.0m/s | -58.1°C | 9.0% | 174.4hPa | 0V | 00:00:00 | 00:00:00 | 00:00:00 | |
| PU1XMG-16 | 2026-09-03 00:11:08 | -22.62571 | -42.66775 | 82° | 168km/h | 13229m | 4.3m/s | -57.8°C | 8.8% | 175.3hPa | 0V | 00:00:00 | 00:00:00 | 00:00:00 | |
| PU1XMG-16 | 2026-09-03 00:11:02 | -22.62610 | -42.67042 | 82° | 161km/h | 13190m | 4.3m/s | -57.5°C | 8.5% | 176.4hPa | 0V | 00:00:00 | 00:00:00 | 00:00:00 | |
| PU1XMG-16 | 2026-09-03 00:10:56 | -22.62647 | -42.67303 | 82° | 162km/h | 13154m | 4.7m/s | -57.2°C | 8.3% | 177.3hPa | 0V | 00:00:00 | 00:00:00 | 00:00:00 | |
| PU1XMG-16 | 2026-09-03 00:10:51 | -22.62683 | -42.67526 | 82° | 166km/h | 13128m | 4.2m/s | -57.0°C | 7.9% | 178.0hPa | 0V | 00:00:00 | 00:00:00 | 00:00:00 | |
| PU1XMG-16 | 2026-09-03 00:10:45 | -22.62721 | -42.67793 | 82° | 162km/h | 13096m | 4.4m/s | -56.7°C | 7.9% | 178.9hPa | 0V | 00:00:00 | 00:00:00 | 00:00:00 | |
| PU1XMG-16 | 2026-09-03 00:10:39 | -22.62763 | -42.68055 | 82° | 164km/h | 13066m | 4.1m/s | -56.4°C | 7.8% | 179.7hPa | 0V | 00:00:00 | 00:00:00 | 00:00:00 | |
| PU1XMG-16 | 2026-09-03 00:10:33 | -22.62806 | -42.68323 | 82° | 162km/h | 13036m | 5.9m/s | -56.2°C | 7.8% | 180.6hPa | 0V | 00:00:00 | 00:00:00 | 00:00:00 | |
| PU1XMG-16 | 2026-09-03 00:10:26 | -22.62854 | -42.68630 | 82° | 162km/h | 12994m | 8.1m/s | -55.8°C | 7.3% | 181.8hPa | 0V | 00:00:00 | 00:00:00 | 00:00:00 | |
| PU1XMG-16 | 2026-09-03 00:10:21 | -22.62885 | -42.68851 | 83° | 162km/h | 12963m | 7.2m/s | -55.5°C | 7.0% | 182.8hPa | 0V | 00:00:00 | 00:00:00 | 00:00:00 | |
| PU1XMG-16 | 2026-09-03 00:10:16 | -22.62920 | -42.69073 | 80° | 164km/h | 12932m | 7.7m/s | -55.2°C | 6.8% | 183.7hPa | 0V | 00:00:00 | 00:00:00 | 00:00:00 | |
| PU1XMG-16 | 2026-09-03 00:10:10 | -22.62968 | -42.69337 | 81° | 164km/h | 12898m | 6.1m/s | -54.9°C | 6.9% | 184.6hPa | 0V | 00:00:00 | 00:00:00 | 00:00:00 | |
| PU1XMG-16 | 2026-09-03 00:10:05 | -22.63004 | -42.69559 | 80° | 166km/h | 12871m | 4.6m/s | -54.7°C | 6.7% | 185.4hPa | 0V | 00:00:00 | 00:00:00 | 00:00:00 | |
| PU1XMG-16 | 2026-09-03 00:09:59 | -22.63053 | -42.69821 | 80° | 161km/h | 12840m | 4.7m/s | -54.4°C | 6.5% | 186.3hPa | 0V | 00:00:00 | 00:00:00 | 00:00:00 | |
| PU1XMG-16 | 2026-09-03 00:09:55 | -22.63087 | -42.70039 | 82° | 164km/h | 12810m | 5.2m/s | -54.1°C | 6.4% | 187.2hPa | 0V | 00:00:00 | 00:00:00 | 00:00:00 | |
| PU1XMG-16 | 2026-09-03 00:09:48 | -22.63135 | -42.70305 | 79° | 164km/h | 12775m | 6.6m/s | -53.8°C | 6.3% | 188.2hPa | 0V | 00:00:00 | 00:00:00 | 00:00:00 | |
| PU1XMG-16 | 2026-09-03 00:09:41 | -22.63185 | -42.70612 | 81° | 164km/h | 12732m | 8.3m/s | -53.4°C | 5.9% | 189.5hPa | 0V | 00:00:00 | 00:00:00 | 00:00:00 | |
| PU1XMG-16 | 2026-09-03 00:09:36 | -22.63231 | -42.70833 | 78° | 166km/h | 12701m | 8.0m/s | -53.1°C | 5.8% | 190.4hPa | 0V | 00:00:00 | 00:00:00 | 00:00:00 | |
| PU1XMG-16 | 2026-09-03 00:09:30 | -22.63274 | -42.71093 | 82° | 162km/h | 12663m | 8.0m/s | -52.8°C | 5.7% | 191.5hPa | 0V | 00:00:00 | 00:00:00 | 00:00:00 | |
| PU1XMG-16 | 2026-09-03 00:09:25 | -22.63314 | -42.71314 | 79° | 164km/h | 12633m | 7.0m/s | -52.5°C | 5.7% | 192.4hPa | 0V | 00:00:00 | 00:00:00 | 00:00:00 | |
| PU1XMG-16 | 2026-09-03 00:09:19 | -22.63368 | -42.71626 | 82° | 164km/h | 12588m | 5.8m/s | -52.2°C | 5.5% | 193.5hPa | 0V | 00:00:00 | 00:00:00 | 00:00:00 | |
| PU1XMG-16 | 2026-09-03 00:09:13 | -22.63406 | -42.71842 | 78° | 157km/h | 12557m | 7.4m/s | -51.8°C | 5.3% | 194.6hPa | 0V | 00:00:00 | 00:00:00 | 00:00:00 | |
| PU1XMG-16 | 2026-09-03 00:09:08 | -22.63449 | -42.72053 | 80° | 161km/h | 12528m | 8.0m/s | -51.6°C | 5.3% | 195.6hPa | 0V | 00:00:00 | 00:00:00 | 00:00:00 | |
| PU1XMG-16 | 2026-09-03 00:09:03 | -22.63484 | -42.72274 | 81° | 161km/h | 12499m | 7.4m/s | -51.3°C | 5.2% | 196.4hPa | 0V | 00:00:00 | 00:00:00 | 00:00:00 | |
| PU1XMG-16 | 2026-09-03 00:08:57 | -22.63530 | -42.72521 | 79° | 153km/h | 12464m | 8.6m/s | -51.0°C | 5.1% | 197.5hPa | 0V | 00:00:00 | 00:00:00 | 00:00:00 | |
| PU1XMG-16 | 2026-09-03 00:08:51 | -22.63578 | -42.72785 | 81° | 166km/h | 12428m | 5.0m/s | -50.7°C | 5.0% | 198.6hPa | 0V | 00:00:00 | 00:00:00 | 00:00:00 | |
| PU1XMG-16 | 2026-09-03 00:08:47 | -22.63613 | -42.73009 | 81° | 161km/h | 12398m | 4.9m/s | -50.4°C | 5.0% | 199.5hPa | 0V | 00:00:00 | 00:00:00 | 00:00:00 | |
| PU1XMG-16 | 2026-09-03 00:08:41 | -22.63653 | -42.73223 | 79° | 162km/h | 12365m | 6.0m/s | -50.1°C | 4.9% | 200.5hPa | 0V | 00:00:00 | 00:00:00 | 00:00:00 | |
| PU1XMG-16 | 2026-09-03 00:08:36 | -22.63692 | -42.73440 | 80° | 159km/h | 12336m | 7.3m/s | -49.9°C | 4.8% | 201.4hPa | 0V | 00:00:00 | 00:00:00 | 00:00:00 | |
| PU1XMG-16 | 2026-09-03 00:08:30 | -22.63735 | -42.73696 | 81° | 161km/h | 12297m | 9.6m/s | -49.6°C | 4.6% | 202.5hPa | 0V | 00:00:00 | 00:00:00 | 00:00:00 | |
| PU1XMG-16 | 2026-09-03 00:08:25 | -22.63771 | -42.73909 | 80° | 157km/h | 12265m | 7.2m/s | -49.3°C | 4.4% | 203.5hPa | 0V | 00:00:00 | 00:00:00 | 00:00:00 | |
| PU1XMG-16 | 2026-09-03 00:08:21 | -22.63810 | -42.74119 | 80° | 161km/h | 12237m | 4.4m/s | -49.1°C | 4.5% | 204.5hPa | 0V | 00:00:00 | 00:00:00 | 00:00:00 | |
| PU1XMG-16 | 2026-09-03 00:08:15 | -22.63849 | -42.74335 | 80° | 159km/h | 12212m | 4.9m/s | -48.9°C | 4.5% | 205.2hPa | 0V | 00:00:00 | 00:00:00 | 00:00:00 | |
| PU1XMG-16 | 2026-09-03 00:08:09 | -22.63904 | -42.74633 | 80° | 157km/h | 12176m | 5.1m/s | -48.6°C | 4.4% | 206.2hPa | 0V | 00:00:00 | 00:00:00 | 00:00:00 | |
| PU1XMG-16 | 2026-09-03 00:08:04 | -22.63936 | -42.74802 | 79° | 161km/h | 12153m | 3.8m/s | -48.3°C | 4.3% | 207.1hPa | 0V | 00:00:00 | 00:00:00 | 00:00:00 | |
| PU1XMG-16 | 2026-09-03 00:07:59 | -22.63976 | -42.75016 | 80° | 161km/h | 12121m | 6.3m/s | -48.1°C | 4.2% | 208.0hPa | 0V | 00:00:00 | 00:00:00 | 00:00:00 | |
| PU1XMG-16 | 2026-09-03 00:07:53 | -22.64023 | -42.75275 | 79° | 162km/h | 12088m | 6.7m/s | -47.8°C | 4.1% | 209.1hPa | 0V | 00:00:00 | 00:00:00 | 00:00:00 | |
| PU1XMG-16 | 2026-09-03 00:07:48 | -22.64068 | -42.75493 | 78° | 162km/h | 12062m | 5.3m/s | -47.6°C | 4.1% | 209.9hPa | 0V | 00:00:00 | 00:00:00 | 00:00:00 | |
| PU1XMG-16 | 2026-09-03 00:07:43 | -22.64111 | -42.75708 | 79° | 159km/h | 12034m | 5.4m/s | -47.4°C | 4.0% | 210.8hPa | 0V | 00:00:00 | 00:00:00 | 00:00:00 | |
| PU1XMG-16 | 2026-09-03 00:07:38 | -22.64154 | -42.75923 | 79° | 162km/h | 12009m | 5.0m/s | -47.2°C | 4.0% | 211.6hPa | 0V | 00:00:00 | 00:00:00 | 00:00:00 | |
| PU1XMG-16 | 2026-09-03 00:07:32 | -22.64209 | -42.76182 | 79° | 159km/h | 11978m | 6.8m/s | -46.9°C | 4.0% | 212.6hPa | 0V | 00:00:00 | 00:00:00 | 00:00:00 | |
| PU1XMG-16 | 2026-09-03 00:07:27 | -22.64255 | -42.76397 | 77° | 166km/h | 11950m | 6.3m/s | -46.6°C | 3.9% | 213.5hPa | 0V | 00:00:00 | 00:00:00 | 00:00:00 | |
| PU1XMG-16 | 2026-09-03 00:07:21 | -22.64318 | -42.76656 | 76° | 162km/h | 11910m | 5.6m/s | -46.3°C | 3.8% | 214.8hPa | 0V | 00:00:00 | 00:00:00 | 00:00:00 | |
| PU1XMG-16 | 2026-09-03 00:07:16 | -22.64371 | -42.76865 | 76° | 153km/h | 11881m | 5.6m/s | -46.0°C | 3.7% | 215.7hPa | 0V | 00:00:00 | 00:00:00 | 00:00:00 | |
| PU1XMG-16 | 2026-09-03 00:07:10 | -22.64429 | -42.77123 | 75° | 170km/h | 11849m | 7.0m/s | -45.8°C | 3.6% | 216.7hPa | 0V | 00:00:00 | 00:00:00 | 00:00:00 | |
| PU1XMG-16 | 2026-09-03 00:07:05 | -22.64491 | -42.77336 | 74° | 161km/h | 11821m | 5.2m/s | -45.5°C | 3.6% | 217.6hPa | 0V | 00:00:00 | 00:00:00 | 00:00:00 | |
| PU1XMG-16 | 2026-09-03 00:06:59 | -22.64551 | -42.77591 | 78° | 161km/h | 11789m | 3.2m/s | -45.2°C | 3.5% | 218.7hPa | 0V | 00:00:00 | 00:00:00 | 00:00:00 | |
| PU1XMG-16 | 2026-09-03 00:06:54 | -22.64606 | -42.77797 | 71° | 161km/h | 11759m | 5.6m/s | -44.9°C | 3.5% | 219.7hPa | 0V | 00:00:00 | 00:00:00 | 00:00:00 | |
| PU1XMG-16 | 2026-09-03 00:06:48 | -22.64680 | -42.78059 | 75° | 162km/h | 11718m | 7.1m/s | -44.6°C | 3.4% | 221.0hPa | 0V | 00:00:00 | 00:00:00 | 00:00:00 | |
| PU1XMG-16 | 2026-09-03 00:06:43 | -22.64737 | -42.78261 | 73° | 151km/h | 11687m | 6.2m/s | -44.3°C | 3.4% | 222.1hPa | 0V | 00:00:00 | 00:00:00 | 00:00:00 | |
| PU1XMG-16 | 2026-09-03 00:06:37 | -22.64817 | -42.78495 | 70° | 155km/h | 11642m | 10.6m/s | -43.9°C | 3.3% | 223.5hPa | 0V | 00:00:00 | 00:00:00 | 00:00:00 | |
| PU1XMG-16 | 2026-09-03 00:06:32 | -22.64881 | -42.78706 | 76° | 162km/h | 11600m | 8.9m/s | -43.6°C | 3.2% | 224.9hPa | 0V | 00:00:00 | 00:00:00 | 00:00:00 | |
| PU1XMG-16 | 2026-09-03 00:06:26 | -22.64960 | -42.78956 | 70° | 164km/h | 11558m | 5.4m/s | -43.3°C | 3.3% | 226.3hPa | 0V | 00:00:00 | 00:00:00 | 00:00:00 | |
| PU1XMG-16 | 2026-09-03 00:06:20 | -22.65051 | -42.79203 | 70° | 161km/h | 11518m | 6.1m/s | -43.0°C | 3.2% | 227.7hPa | 0V | 00:00:00 | 00:00:00 | 00:00:00 | |
| PU1XMG-16 | 2026-09-03 00:06:16 | -22.65126 | -42.79409 | 70° | 164km/h | 11485m | 6.9m/s | -42.8°C | 3.2% | 228.8hPa | 0V | 00:00:00 | 00:00:00 | 00:00:00 | |
| PU1XMG-16 | 2026-09-03 00:06:09 | -22.65217 | -42.79661 | 70° | 164km/h | 11448m | 5.0m/s | -42.6°C | 3.2% | 230.0hPa | 0V | 00:00:00 | 00:00:00 | 00:00:00 | |
| PU1XMG-16 | 2026-09-03 00:05:59 | -22.65363 | -42.80082 | 70° | 164km/h | 11395m | 6.0m/s | -42.1°C | 3.2% | 231.8hPa | 0V | 00:00:00 | 00:00:00 | 00:00:00 | |
| PU1XMG-16 | 2026-09-03 00:05:53 | -22.65453 | -42.80332 | 70° | 164km/h | 11364m | 4.1m/s | -41.8°C | 3.2% | 233.0hPa | 0V | 00:00:00 | 00:00:00 | 00:00:00 | |
| PU1XMG-16 | 2026-09-03 00:05:47 | -22.65542 | -42.80582 | 70° | 164km/h | 11328m | 4.6m/s | -41.5°C | 3.0% | 234.2hPa | 0V | 00:00:00 | 00:00:00 | 00:00:00 | |
| PU1XMG-16 | 2026-09-03 00:05:41 | -22.65634 | -42.80831 | 69° | 162km/h | 11290m | 5.8m/s | -41.1°C | 3.0% | 235.5hPa | 0V | 00:00:00 | 00:00:00 | 00:00:00 | |
| PU1XMG-16 | 2026-09-03 00:05:34 | -22.65743 | -42.81125 | 69° | 166km/h | 11254m | 5.2m/s | -40.8°C | 2.9% | 236.7hPa | 0V | 00:00:00 | 00:00:00 | 00:00:00 | |
| PU1XMG-16 | 2026-09-03 00:05:28 | -22.65838 | -42.81378 | 69° | 166km/h | 11222m | 4.7m/s | -40.5°C | 2.9% | 237.8hPa | 0V | 00:00:00 | 00:00:00 | 00:00:00 | |
| PU1XMG-16 | 2026-09-03 00:05:22 | -22.65932 | -42.81625 | 67° | 159km/h | 11191m | 6.1m/s | -40.2°C | 2.8% | 238.9hPa | 0V | 00:00:00 | 00:00:00 | 00:00:00 | |
| PU1XMG-16 | 2026-09-03 00:05:16 | -22.66028 | -42.81876 | 70° | 172km/h | 11154m | 8.3m/s | -39.9°C | 2.8% | 240.2hPa | 0V | 00:00:00 | 00:00:00 | 00:00:00 | |
| PU1XMG-16 | 2026-09-03 00:05:10 | -22.66127 | -42.82135 | 67° | 175km/h | 11112m | 6.9m/s | -39.6°C | 2.8% | 241.7hPa | 0V | 00:00:00 | 00:00:00 | 00:00:00 | |
| PU1XMG-16 | 2026-09-03 00:04:59 | -22.66317 | -42.82599 | 68° | 172km/h | 11047m | 6.0m/s | -39.0°C | 2.6% | 244.0hPa | 0V | 00:00:00 | 00:00:00 | 00:00:00 | |
| PU1XMG-16 | 2026-09-03 00:04:54 | -22.66423 | -42.82856 | 67° | 168km/h | 11014m | 3.7m/s | -38.7°C | 2.6% | 245.2hPa | 0V | 00:00:00 | 00:00:00 | 00:00:00 | |
| PU1XMG-16 | 2026-09-03 00:04:48 | -22.66520 | -42.83109 | 69° | 170km/h | 10982m | 4.4m/s | -38.4°C | 2.6% | 246.3hPa | 0V | 00:00:00 | 00:00:00 | 00:00:00 | |
| PU1XMG-16 | 2026-09-03 00:04:43 | -22.66620 | -42.83365 | 67° | 172km/h | 10951m | 6.5m/s | -38.1°C | 2.5% | 247.5hPa | 0V | 00:00:00 | 00:00:00 | 00:00:00 | |
| PU1XMG-16 | 2026-09-03 00:04:38 | -22.66703 | -42.83577 | 69° | 168km/h | 10922m | 7.0m/s | -37.9°C | 2.5% | 248.5hPa | 0V | 00:00:00 | 00:00:00 | 00:00:00 | |
| PU1XMG-16 | 2026-09-03 00:04:32 | -22.66801 | -42.83834 | 68° | 172km/h | 10889m | 5.9m/s | -37.6°C | 2.5% | 249.7hPa | 0V | 00:00:00 | 00:00:00 | 00:00:00 | |
| PU1XMG-16 | 2026-09-03 00:04:24 | -22.66923 | -42.84133 | 67° | 172km/h | 10852m | 6.8m/s | -37.3°C | 2.4% | 250.8hPa | 0V | 00:00:00 | 00:00:00 | 00:00:00 | |
| PU1XMG-16 | 2026-09-03 00:04:18 | -22.67008 | -42.84347 | 68° | 170km/h | 10825m | 5.0m/s | -37.0°C | 2.4% | 251.9hPa | 0V | 00:00:00 | 00:00:00 | 00:00:00 | |
| PU1XMG-16 | 2026-09-03 00:04:14 | -22.67095 | -42.84562 | 67° | 173km/h | 10796m | 4.6m/s | -36.7°C | 2.3% | 253.0hPa | 0V | 00:00:00 | 00:00:00 | 00:00:00 | |
| PU1XMG-16 | 2026-09-03 00:04:10 | -22.67196 | -42.84822 | 69° | 170km/h | 10761m | 6.0m/s | -36.4°C | 2.3% | 254.3hPa | 0V | 00:00:00 | 00:00:00 | 00:00:00 | |
| PU1XMG-16 | 2026-09-03 00:04:01 | -22.67298 | -42.85077 | 69° | 170km/h | 10728m | 6.8m/s | -36.1°C | 2.3% | 255.4hPa | 0V | 00:00:00 | 00:00:00 | 00:00:00 | |
| PU1XMG-16 | 2026-09-03 00:03:55 | -22.67396 | -42.85333 | 68° | 170km/h | 10689m | 7.2m/s | -35.9°C | 2.2% | 256.9hPa | 0V | 00:00:00 | 00:00:00 | 00:00:00 | |
| PU1XMG-16 | 2026-09-03 00:03:49 | -22.67493 | -42.85592 | 67° | 173km/h | 10648m | 5.0m/s | -35.5°C | 2.2% | 258.3hPa | 0V | 00:00:00 | 00:00:00 | 00:00:00 | |
| PU1XMG-16 | 2026-09-03 00:03:44 | -22.67606 | -42.85852 | 67° | 173km/h | 10619m | 4.4m/s | -35.3°C | 2.2% | 259.5hPa | 0V | 00:00:00 | 00:00:00 | 00:00:00 | |
| PU1XMG-16 | 2026-09-03 00:03:32 | -22.67808 | -42.86329 | 66° | 170km/h | 10561m | 6.2m/s | -34.9°C | 2.2% | 261.6hPa | 0V | 00:00:00 | 00:00:00 | 00:00:00 | |
| PU1XMG-16 | 2026-09-03 00:03:26 | -22.67920 | -42.86586 | 65° | 177km/h | 10522m | 7.3m/s | -34.6°C | 2.2% | 263.1hPa | 0V | 00:00:00 | 00:00:00 | 00:00:00 | |
| PU1XMG-16 | 2026-09-03 00:03:21 | -22.68038 | -42.86853 | 66° | 181km/h | 10489m | 5.9m/s | -34.3°C | 2.2% | 264.3hPa | 0V | 00:00:00 | 00:00:00 | 00:00:00 | |
| PU1XMG-16 | 2026-09-03 00:03:15 | -22.68154 | -42.87118 | 66° | 179km/h | 10460m | 5.5m/s | -34.1°C | 2.2% | 265.4hPa | 0V | 00:00:00 | 00:00:00 | 00:00:00 | |
| PU1XMG-16 | 2026-09-03 00:03:09 | -22.68277 | -42.87382 | 64° | 179km/h | 10431m | 6.2m/s | -33.9°C | 2.1% | 266.5hPa | 0V | 00:00:00 | 00:00:00 | 00:00:00 | |
| PU1XMG-16 | 2026-09-03 00:02:57 | -22.69110 | -42.89185 | 67° | 181km/h | 10223m | 7.3m/s | -32.9°C | 2.3% | 274.6hPa | 0V | 00:00:00 | 00:00:00 | 00:00:00 | |
| PU1XMG-16 | 2026-09-03 00:02:51 | -22.69205 | -42.89407 | 64° | 177km/h | 10194m | 8.5m/s | -32.7°C | 2.2% | 275.8hPa | 0V | 00:00:00 | 00:00:00 | 00:00:00 | |
| PU1XMG-16 | 2026-09-03 00:02:39 | -22.69310 | -42.89625 | 65° | 179km/h | 10158m | 6.2m/s | -32.6°C | 2.3% | 277.1hPa | 0V | 00:00:00 | 00:00:00 | 00:00:00 | |
| PU1XMG-16 | 2026-09-03 00:02:34 | -22.69407 | -42.89849 | 66° | 181km/h | 10128m | 5.4m/s | -32.6°C | 2.2% | 278.2hPa | 0V | 00:00:00 | 00:00:00 | 00:00:00 | |
| PU1XMG-16 | 2026-09-03 00:02:28 | -22.69530 | -42.90115 | 63° | 173km/h | 10093m | 7.7m/s | -32.4°C | 2.1% | 279.7hPa | 0V | 00:00:00 | 00:00:00 | 00:00:00 | |
| PU1XMG-16 | 2026-09-03 00:02:21 | -22.69630 | -42.90327 | 64° | 181km/h | 10061m | 4.7m/s | -32.3°C | 2.1% | 281.0hPa | 0V | 00:00:00 | 00:00:00 | 00:00:00 | |
| PU1XMG-16 | 2026-09-03 00:02:12 | -22.69751 | -42.90588 | 65° | 168km/h | 10029m | 5.6m/s | -32.1°C | 2.1% | 282.3hPa | 0V | 00:00:00 | 00:00:00 | 00:00:00 | |
| PU1XMG-16 | 2026-09-03 00:02:05 | -22.69844 | -42.90796 | 66° | 177km/h | 10004m | 6.9m/s | -32.1°C | 2.2% | 283.3hPa | 0V | 00:00:00 | 00:00:00 | 00:00:00 | |
| PU1XMG-16 | 2026-09-03 00:01:50 | -22.70080 | -42.91309 | 64° | 173km/h | 9928m | 7.8m/s | -31.7°C | 2.4% | 286.2hPa | 0V | 00:00:00 | 00:00:00 | 00:00:00 | |
| PU1XMG-16 | 2026-09-03 00:01:47 | -22.70180 | -42.91530 | 64° | 183km/h | 9898m | 5.4m/s | -31.6°C | 2.4% | 287.5hPa | 0V | 00:00:00 | 00:00:00 | 00:00:00 | |
| PU1XMG-16 | 2026-09-03 00:01:40 | -22.70305 | -42.91794 | 66° | 177km/h | 9868m | 6.6m/s | -31.8°C | 2.4% | 288.7hPa | 0V | 00:00:00 | 00:00:00 | 00:00:00 | |
| PU1XMG-16 | 2026-09-03 00:01:34 | -22.70399 | -42.92016 | 67° | 183km/h | 9842m | 5.9m/s | -31.7°C | 2.6% | 289.8hPa | 0V | 00:00:00 | 00:00:00 | 00:00:00 | |
| PU1XMG-16 | 2026-09-03 00:01:25 | -22.70507 | -42.92284 | 66° | 175km/h | 9812m | 6.6m/s | -31.9°C | 3.4% | 291.0hPa | 0V | 00:00:00 | 00:00:00 | 00:00:00 | |
| PU1XMG-16 | 2026-09-03 00:01:21 | -22.70604 | -42.92505 | 65° | 183km/h | 9784m | 2.9m/s | -32.4°C | 4.3% | 292.2hPa | 0V | 00:00:00 | 00:00:00 | 00:00:00 | |
| PU1XMG-16 | 2026-09-03 00:01:10 | -22.70728 | -42.92773 | 65° | 181km/h | 9752m | 5.9m/s | -32.2°C | 4.2% | 293.3hPa | 0V | 00:00:00 | 00:00:00 | 00:00:00 | |
| PU1XMG-16 | 2026-09-03 00:00:53 | -22.70944 | -42.93304 | 67° | 177km/h | 9692m | 4.5m/s | -31.6°C | 4.0% | 295.9hPa | 0V | 00:00:00 | 00:00:00 | 00:00:00 | |
| PU1XMG-16 | 2026-09-03 00:00:49 | -22.71037 | -42.93521 | 66° | 173km/h | 9667m | 6.2m/s | -31.3°C | 3.9% | 297.0hPa | 0V | 00:00:00 | 00:00:00 | 00:00:00 | |
| PU1XMG-16 | 2026-09-03 00:00:47 | -22.71148 | -42.93781 | 68° | 173km/h | 9635m | 5.0m/s | -31.0°C | 3.8% | 298.4hPa | 0V | 00:00:00 | 00:00:00 | 00:00:00 | |
| PU1XMG-16 | 2026-09-03 00:00:35 | -22.71347 | -42.94262 | 69° | 177km/h | 9583m | 6.2m/s | -30.6°C | 3.6% | 300.6hPa | 0V | 00:00:00 | 00:00:00 | 00:00:00 | |
| PU1XMG-16 | 2026-09-03 00:00:31 | -22.71427 | -42.94485 | 70° | 177km/h | 9556m | 3.8m/s | -30.4°C | 3.6% | 301.6hPa | 0V | 00:00:00 | 00:00:00 | 00:00:00 | |
| PU1XMG-16 | 2026-09-03 00:00:23 | -22.71530 | -42.94751 | 66° | 172km/h | 9525m | 8.1m/s | -30.1°C | 3.4% | 303.0hPa | 0V | 00:00:00 | 00:00:00 | 00:00:00 | |
| PU1XMG-16 | 2026-09-03 00:00:18 | -22.71619 | -42.94975 | 68° | 179km/h | 9494m | 8.1m/s | -29.8°C | 3.2% | 304.3hPa | 0V | 00:00:00 | 00:00:00 | 00:00:00 | |
| PU1XMG-16 | 2026-09-03 00:00:11 | -22.71723 | -42.95236 | 68° | 170km/h | 9462m | 5.1m/s | -29.5°C | 3.3% | 305.7hPa | 0V | 00:00:00 | 00:00:00 | 00:00:00 | |
| PU1XMG-16 | 2026-09-03 00:00:05 | -22.71812 | -42.95458 | 68° | 181km/h | 9443m | 4.5m/s | -29.3°C | 3.2% | 306.5hPa | 0V | 00:00:00 | 00:00:00 | 00:00:00 | |
| PU1XMG-16 | 2026-09-02 23:59:59 | -22.71901 | -42.95687 | 68° | 173km/h | 9422m | 3.2m/s | -29.1°C | 3.2% | 307.4hPa | 0V | 00:00:00 | 00:00:00 | 00:00:00 | |
| PU1XMG-16 | 2026-09-02 23:59:54 | -22.72003 | -42.95951 | 68° | 177km/h | 9393m | 5.0m/s | -28.9°C | 3.1% | 308.6hPa | 0V | 00:00:00 | 00:00:00 | 00:00:00 | |
| PU1XMG-16 | 2026-09-02 23:59:47 | -22.72110 | -42.96225 | 68° | 175km/h | 9362m | 5.3m/s | -28.7°C | 3.1% | 309.9hPa | 0V | 00:00:00 | 00:00:00 | 00:00:00 | |
| PU1XMG-16 | 2026-09-02 23:59:41 | -22.72214 | -42.96482 | 68° | 172km/h | 9333m | 4.4m/s | -28.5°C | 3.0% | 311.1hPa | 0V | 00:00:00 | 00:00:00 | 00:00:00 | |
| PU1XMG-16 | 2026-09-02 23:59:36 | -22.72305 | -42.96704 | 68° | 183km/h | 9312m | 3.0m/s | -28.3°C | 3.0% | 312.0hPa | 0V | 00:00:00 | 00:00:00 | 00:00:00 | |
| PU1XMG-16 | 2026-09-02 23:59:30 | -22.72408 | -42.96972 | 70° | 172km/h | 9292m | 3.9m/s | -28.2°C | 3.0% | 312.9hPa | 0V | 00:00:00 | 00:00:00 | 00:00:00 | |
| PU1XMG-16 | 2026-09-02 23:59:26 | -22.72488 | -42.97191 | 66° | 175km/h | 9272m | 6.8m/s | -28.0°C | 2.9% | 313.8hPa | 0V | 00:00:00 | 00:00:00 | 00:00:00 | |
| PU1XMG-16 | 2026-09-02 23:59:20 | -22.72582 | -42.97407 | 67° | 175km/h | 9238m | 4.3m/s | -27.8°C | 2.9% | 315.3hPa | 0V | 00:00:00 | 00:00:00 | 00:00:00 | |
| PU1XMG-16 | 2026-09-02 23:59:15 | -22.72673 | -42.97627 | 66° | 177km/h | 9213m | 6.2m/s | -27.7°C | 2.8% | 316.3hPa | 0V | 00:00:00 | 00:00:00 | 00:00:00 | |
| PU1XMG-16 | 2026-09-02 23:59:09 | -22.72788 | -42.97886 | 65° | 173km/h | 9191m | 3.5m/s | -27.5°C | 2.9% | 317.4hPa | 0V | 00:00:00 | 00:00:00 | 00:00:00 | |
| PU1XMG-16 | 2026-09-02 23:59:04 | -22.72875 | -42.98106 | 70° | 173km/h | 9169m | 5.3m/s | -27.4°C | 2.9% | 318.4hPa | 0V | 00:00:00 | 00:00:00 | 00:00:00 | |
| PU1XMG-16 | 2026-09-02 23:58:59 | -22.72956 | -42.98314 | 64° | 161km/h | 9144m | 4.6m/s | -27.2°C | 2.9% | 319.2hPa | 0V | 00:00:00 | 00:00:00 | 00:00:00 | |
| PU1XMG-16 | 2026-09-02 23:58:54 | -22.73067 | -42.98562 | 67° | 173km/h | 9107m | 7.0m/s | -26.9°C | 3.0% | 321.0hPa | 0V | 00:00:00 | 00:00:00 | 00:00:00 | |
| PU1XMG-16 | 2026-09-02 23:58:48 | -22.73166 | -42.98792 | 65° | 192km/h | 9082m | 5.2m/s | -26.7°C | 3.0% | 322.1hPa | 0V | 00:00:00 | 00:00:00 | 00:00:00 | |
| PU1XMG-16 | 2026-09-02 23:58:37 | -22.73392 | -42.99258 | 62° | 175km/h | 9022m | 4.5m/s | -26.2°C | 2.9% | 324.9hPa | 0V | 00:00:00 | 00:00:00 | 00:00:00 | |
| PU1XMG-16 | 2026-09-02 23:58:32 | -22.73495 | -42.99478 | 66° | 186km/h | 8998m | 4.2m/s | -26.0°C | 2.8% | 325.8hPa | 0V | 00:00:00 | 00:00:00 | 00:00:00 | |
| PU1XMG-16 | 2026-09-02 23:58:26 | -22.73608 | -42.99739 | 65° | 170km/h | 8970m | 7.2m/s | -25.8°C | 2.8% | 327.1hPa | 0V | 00:00:00 | 00:00:00 | 00:00:00 | |
| PU1XMG-16 | 2026-09-02 23:58:21 | -22.73705 | -42.99953 | 65° | 179km/h | 8942m | 5.5m/s | -25.7°C | 3.3% | 328.4hPa | 0V | 00:00:00 | 00:00:00 | 00:00:00 | |
| PU1XMG-16 | 2026-09-02 23:58:16 | -22.73807 | -43.00172 | 64° | 175km/h | 8918m | 5.3m/s | -25.8°C | 3.2% | 329.3hPa | 0V | 00:00:00 | 00:00:00 | 00:00:00 | |
| PU1XMG-16 | 2026-09-02 23:58:11 | -22.73910 | -43.00376 | 61° | 172km/h | 8895m | 5.2m/s | -25.6°C | 2.8% | 330.4hPa | 0V | 00:00:00 | 00:00:00 | 00:00:00 | |
| PU1XMG-16 | 2026-09-02 23:58:06 | -22.74018 | -43.00590 | 62° | 179km/h | 8868m | 5.9m/s | -25.5°C | 2.4% | 331.7hPa | 0V | 00:00:00 | 00:00:00 | 00:00:00 | |
| PU1XMG-16 | 2026-09-02 23:57:59 | -22.74164 | -43.00886 | 64° | 172km/h | 8830m | 4.2m/s | -25.3°C | 2.4% | 333.4hPa | 0V | 00:00:00 | 00:00:00 | 00:00:00 | |
| PU1XMG-16 | 2026-09-02 23:57:53 | -22.74286 | -43.01144 | 62° | 175km/h | 8804m | 3.6m/s | -25.1°C | 2.4% | 334.6hPa | 0V | 00:00:00 | 00:00:00 | 00:00:00 | |
| PU1XMG-16 | 2026-09-02 23:57:47 | -22.74418 | -43.01390 | 63° | 170km/h | 8782m | 5.7m/s | -24.9°C | 2.4% | 335.7hPa | 0V | 00:00:00 | 00:00:00 | 00:00:00 | |
| PU1XMG-16 | 2026-09-02 23:57:43 | -22.74508 | -43.01601 | 65° | 168km/h | 8751m | 8.0m/s | -24.7°C | 2.3% | 337.1hPa | 0V | 00:00:00 | 00:00:00 | 00:00:00 | |
| PU1XMG-16 | 2026-09-02 23:57:37 | -22.74614 | -43.01803 | 61° | 172km/h | 8721m | 4.6m/s | -24.6°C | 2.4% | 338.4hPa | 0V | 00:00:00 | 00:00:00 | 00:00:00 | |
| PU1XMG-16 | 2026-09-02 23:57:31 | -22.74733 | -43.02063 | 68° | 179km/h | 8697m | 2.8m/s | -24.6°C | 2.5% | 339.6hPa | 0V | 00:00:00 | 00:00:00 | 00:00:00 | |
| PU1XMG-16 | 2026-09-02 23:57:25 | -22.74850 | -43.02308 | 63° | 166km/h | 8658m | 9.2m/s | -24.4°C | 2.6% | 341.4hPa | 0V | 00:00:00 | 00:00:00 | 00:00:00 | |
| PU1XMG-16 | 2026-09-02 23:57:20 | -22.74947 | -43.02517 | 63° | 170km/h | 8625m | 7.1m/s | -24.2°C | 2.6% | 343.0hPa | 0V | 00:00:00 | 00:00:00 | 00:00:00 | |
| PU1XMG-16 | 2026-09-02 23:57:15 | -22.75043 | -43.02727 | 66° | 170km/h | 8590m | 5.7m/s | -24.0°C | 2.5% | 344.5hPa | 0V | 00:00:00 | 00:00:00 | 00:00:00 | |
| PU1XMG-16 | 2026-09-02 23:57:09 | -22.75183 | -43.03020 | 63° | 166km/h | 8554m | 5.3m/s | -23.7°C | 2.4% | 346.0hPa | 0V | 00:00:00 | 00:00:00 | 00:00:00 | |
| PU1XMG-16 | 2026-09-02 23:57:03 | -22.75277 | -43.03218 | 63° | 164km/h | 8530m | 2.7m/s | -23.5°C | 2.5% | 347.3hPa | 0V | 00:00:00 | 00:00:00 | 00:00:00 | |
| PU1XMG-16 | 2026-09-02 23:56:58 | -22.75376 | -43.03427 | 65° | 172km/h | 8508m | 7.5m/s | -23.3°C | 2.4% | 348.4hPa | 0V | 00:00:00 | 00:00:00 | 00:00:00 | |
| PU1XMG-16 | 2026-09-02 23:56:53 | -22.75472 | -43.03629 | 64° | 157km/h | 8480m | 6.3m/s | -23.1°C | 2.4% | 349.5hPa | 0V | 00:00:00 | 00:00:00 | 00:00:00 | |
| PU1XMG-16 | 2026-09-02 23:56:47 | -22.75590 | -43.03873 | 63° | 179km/h | 8451m | 7.5m/s | -22.9°C | 2.3% | 351.0hPa | 0V | 00:00:00 | 00:00:00 | 00:00:00 | |
| PU1XMG-16 | 2026-09-02 23:56:41 | -22.75714 | -43.04121 | 62° | 166km/h | 8421m | 5.5m/s | -22.7°C | 2.6% | 352.6hPa | 0V | 00:00:00 | 00:00:00 | 00:00:00 | |
| PU1XMG-16 | 2026-09-02 23:56:36 | -22.75810 | -43.04315 | 61° | 155km/h | 8396m | 4.7m/s | -22.7°C | 2.9% | 353.8hPa | 0V | 00:00:00 | 00:00:00 | 00:00:00 | |
| PU1XMG-16 | 2026-09-02 23:56:30 | -22.75942 | -43.04557 | 60° | 175km/h | 8359m | 7.4m/s | -22.5°C | 3.0% | 355.3hPa | 0V | 00:00:00 | 00:00:00 | 00:00:00 | |
| PU1XMG-16 | 2026-09-02 23:56:25 | -22.76053 | -43.04756 | 62° | 168km/h | 8328m | 7.4m/s | -22.3°C | 3.0% | 356.9hPa | 0V | 00:00:00 | 00:00:00 | 00:00:00 | |
| PU1XMG-16 | 2026-09-02 23:56:14 | -22.76284 | -43.05215 | 63° | 172km/h | 8259m | 5.5m/s | -21.8°C | 2.9% | 360.3hPa | 0V | 00:00:00 | 00:00:00 | 00:00:00 | |
| PU1XMG-16 | 2026-09-02 23:56:08 | -22.76401 | -43.05459 | 63° | 166km/h | 8228m | 5.3m/s | -21.6°C | 2.8% | 361.8hPa | 0V | 00:00:00 | 00:00:00 | 00:00:00 | |
| PU1XMG-16 | 2026-09-02 23:56:03 | -22.76506 | -43.05662 | 62° | 172km/h | 8203m | 5.6m/s | -21.4°C | 2.8% | 363.1hPa | 0V | 00:00:00 | 00:00:00 | 00:00:00 | |
| PU1XMG-16 | 2026-09-02 23:55:57 | -22.76629 | -43.05910 | 65° | 168km/h | 8167m | 5.9m/s | -21.4°C | 3.0% | 364.8hPa | 0V | 00:00:00 | 00:00:00 | 00:00:00 | |
| PU1XMG-16 | 2026-09-02 23:55:52 | -22.76720 | -43.06116 | 63° | 172km/h | 8144m | 5.3m/s | -21.3°C | 3.0% | 366.1hPa | 0V | 00:00:00 | 00:00:00 | 00:00:00 | |
| PU1XMG-16 | 2026-09-02 23:55:47 | -22.76833 | -43.06333 | 60° | 186km/h | 8115m | 2.8m/s | -21.2°C | 3.0% | 367.5hPa | 0V | 00:00:00 | 00:00:00 | 00:00:00 | |
| PU1XMG-16 | 2026-09-02 23:55:41 | -22.76961 | -43.06580 | 63° | 168km/h | 8072m | 8.9m/s | -21.0°C | 2.9% | 369.6hPa | 0V | 00:00:00 | 00:00:00 | 00:00:00 | |
| PU1XMG-16 | 2026-09-02 23:55:35 | -22.77089 | -43.06834 | 62° | 181km/h | 8040m | 4.0m/s | -21.1°C | 2.8% | 371.2hPa | 0V | 00:00:00 | 00:00:00 | 00:00:00 | |
| PU1XMG-16 | 2026-09-02 23:55:29 | -22.77220 | -43.07070 | 61° | 162km/h | 8003m | 11.1m/s | -20.9°C | 2.8% | 373.0hPa | 0V | 00:00:00 | 00:00:00 | 00:00:00 | |
| PU1XMG-16 | 2026-09-02 23:55:24 | -22.77315 | -43.07264 | 60° | 155km/h | 7968m | 6.3m/s | -20.7°C | 2.7% | 374.9hPa | 0V | 00:00:00 | 00:00:00 | 00:00:00 | |
| PU1XMG-16 | 2026-09-02 23:55:18 | -22.77443 | -43.07482 | 63° | 146km/h | 7929m | 7.6m/s | -20.3°C | 2.6% | 376.8hPa | 0V | 00:00:00 | 00:00:00 | 00:00:00 | |
| PU1XMG-16 | 2026-09-02 23:55:12 | -22.77531 | -43.07715 | 67° | 155km/h | 7898m | 7.3m/s | -19.8°C | 2.6% | 378.4hPa | 0V | 00:00:00 | 00:00:00 | 00:00:00 | |
| PU1XMG-16 | 2026-09-02 23:55:05 | -22.77662 | -43.07965 | 61° | 150km/h | 7844m | 7.1m/s | -19.6°C | 2.5% | 381.2hPa | 0V | 00:00:00 | 00:00:00 | 00:00:00 | |
| PU1XMG-16 | 2026-09-02 23:55:00 | -22.77764 | -43.08139 | 59° | 151km/h | 7814m | 7.9m/s | -19.3°C | 2.4% | 382.9hPa | 0V | 00:00:00 | 00:00:00 | 00:00:00 | |
| PU1XMG-16 | 2026-09-02 23:54:54 | -22.77873 | -43.08341 | 67° | 130km/h | 7773m | 10.1m/s | -19.7°C | 2.3% | 384.8hPa | 0V | 00:00:00 | 00:00:00 | 00:00:00 | |
| PU1XMG-16 | 2026-09-02 23:54:48 | -22.77959 | -43.08537 | 72° | 135km/h | 7722m | 10.5m/s | -20.2°C | 2.4% | 387.5hPa | 0V | 00:00:00 | 00:00:00 | 00:00:00 | |
| PU1XMG-16 | 2026-09-02 23:54:41 | -22.78038 | -43.08780 | 66° | 137km/h | 7670m | 7.0m/s | -20.0°C | 2.5% | 390.1hPa | 0V | 00:00:00 | 00:00:00 | 00:00:00 | |
| PU1XMG-16 | 2026-09-02 23:54:36 | -22.78093 | -43.08951 | 74° | 128km/h | 7638m | 10.2m/s | -20.0°C | 2.5% | 391.8hPa | 0V | 00:00:00 | 00:00:00 | 00:00:00 | |
| PU1XMG-16 | 2026-09-02 23:54:30 | -22.78149 | -43.09154 | 75° | 131km/h | 7600m | 7.8m/s | -19.8°C | 2.6% | 393.9hPa | 0V | 00:00:00 | 00:00:00 | 00:00:00 | |
| PU1XMG-16 | 2026-09-02 23:54:25 | -22.78202 | -43.09333 | 71° | 130km/h | 7569m | 4.8m/s | -19.6°C | 2.7% | 395.2hPa | 0V | 00:00:00 | 00:00:00 | 00:00:00 | |
| PU1XMG-16 | 2026-09-02 23:54:20 | -22.78256 | -43.09501 | 78° | 130km/h | 7540m | 4.7m/s | -19.5°C | 3.0% | 396.8hPa | 0V | 00:00:00 | 00:00:00 | 00:00:00 | |
| PU1XMG-16 | 2026-09-02 23:54:14 | -22.78298 | -43.09703 | 78° | 124km/h | 7493m | 4.6m/s | -19.5°C | 3.5% | 399.5hPa | 0V | 00:00:00 | 00:00:00 | 00:00:00 | |
| PU1XMG-16 | 2026-09-02 23:54:08 | -22.78350 | -43.09919 | 79° | 148km/h | 7465m | 6.9m/s | -19.4°C | 3.7% | 400.9hPa | 0V | 00:00:00 | 00:00:00 | 00:00:00 | |
| PU1XMG-16 | 2026-09-02 23:54:03 | -22.78381 | -43.10107 | 84° | 131km/h | 7430m | 9.5m/s | -19.2°C | 3.9% | 402.9hPa | 0V | 00:00:00 | 00:00:00 | 00:00:00 | |
| PU1XMG-16 | 2026-09-02 23:53:58 | -22.78390 | -43.10282 | 90° | 126km/h | 7398m | 4.6m/s | -18.9°C | 3.9% | 404.8hPa | 0V | 00:00:00 | 00:00:00 | 00:00:00 | |
| PU1XMG-16 | 2026-09-02 23:53:52 | -22.78404 | -43.10498 | 85° | 133km/h | 7353m | 10.1m/s | -18.5°C | 3.8% | 407.0hPa | 0V | 00:00:00 | 00:00:00 | 00:00:00 | |
| PU1XMG-16 | 2026-09-02 23:53:46 | -22.78447 | -43.10706 | 79° | 135km/h | 7308m | 6.0m/s | -18.1°C | 3.8% | 409.5hPa | 0V | 00:00:00 | 00:00:00 | 00:00:00 | |
| PU1XMG-16 | 2026-09-02 23:53:41 | -22.78465 | -43.10894 | 87° | 142km/h | 7275m | 6.7m/s | -17.8°C | 3.4% | 411.4hPa | 0V | 00:00:00 | 00:00:00 | 00:00:00 | |
| PU1XMG-16 | 2026-09-02 23:53:35 | -22.78493 | -43.11118 | 83° | 133km/h | 7234m | 9.8m/s | -17.5°C | 3.2% | 413.7hPa | 0V | 00:00:00 | 00:00:00 | 00:00:00 | |
| PU1XMG-16 | 2026-09-02 23:53:30 | -22.78506 | -43.11297 | 85° | 128km/h | 7200m | 4.4m/s | -17.3°C | 3.2% | 415.6hPa | 0V | 00:00:00 | 00:00:00 | 00:00:00 | |
| PU1XMG-16 | 2026-09-02 23:53:24 | -22.78531 | -43.11505 | 81° | 131km/h | 7160m | 8.8m/s | -17.0°C | 3.0% | 417.6hPa | 0V | 00:00:00 | 00:00:00 | 00:00:00 | |
| PU1XMG-16 | 2026-09-02 23:53:18 | -22.78565 | -43.11715 | 86° | 135km/h | 7124m | 5.2m/s | -16.7°C | 3.0% | 419.6hPa | 0V | 00:00:00 | 00:00:00 | 00:00:00 | |
| PU1XMG-16 | 2026-09-02 23:53:13 | -22.78585 | -43.11898 | 80° | 133km/h | 7094m | 5.9m/s | -16.4°C | 2.9% | 421.3hPa | 0V | 00:00:00 | 00:00:00 | 00:00:00 | |
| PU1XMG-16 | 2026-09-02 23:53:05 | -22.78636 | -43.12171 | 82° | 133km/h | 7044m | 7.9m/s | -16.1°C | 2.8% | 424.0hPa | 0V | 00:00:00 | 00:00:00 | 00:00:00 | |
| PU1XMG-16 | 2026-09-02 23:52:59 | -22.78669 | -43.12387 | 83° | 135km/h | 7009m | 4.8m/s | -16.1°C | 3.0% | 426.2hPa | 0V | 00:00:00 | 00:00:00 | 00:00:00 | |
| PU1XMG-16 | 2026-09-02 23:52:53 | -22.78697 | -43.12605 | 79° | 124km/h | 6972m | 7.3m/s | -16.2°C | 3.4% | 428.3hPa | 0V | 00:00:00 | 00:00:00 | 00:00:00 | |
| PU1XMG-16 | 2026-09-02 23:52:48 | -22.78742 | -43.12764 | 74° | 130km/h | 6942m | 6.9m/s | -16.4°C | 3.6% | 430.0hPa | 0V | 00:00:00 | 00:00:00 | 00:00:00 | |
| PU1XMG-16 | 2026-09-02 23:52:43 | -22.78788 | -43.12932 | 75° | 119km/h | 6906m | 5.8m/s | -16.5°C | 3.5% | 432.0hPa | 0V | 00:00:00 | 00:00:00 | 00:00:00 | |
| PU1XMG-16 | 2026-09-02 23:52:37 | -22.78836 | -43.13125 | 76° | 117km/h | 6869m | 6.4m/s | -16.6°C | 3.3% | 434.1hPa | 0V | 00:00:00 | 00:00:00 | 00:00:00 | |
| PU1XMG-16 | 2026-09-02 23:52:32 | -22.78875 | -43.13270 | 76° | 111km/h | 6842m | 6.7m/s | -16.5°C | 3.3% | 435.7hPa | 0V | 00:00:00 | 00:00:00 | 00:00:00 | |
| PU1XMG-16 | 2026-09-02 23:52:26 | -22.78908 | -43.13448 | 79° | 113km/h | 6803m | 6.4m/s | -17.0°C | 5.1% | 438.1hPa | 0V | 00:00:00 | 00:00:00 | 00:00:00 | |
| PU1XMG-16 | 2026-09-02 23:52:20 | -22.78944 | -43.13630 | 74° | 106km/h | 6772m | 7.7m/s | -17.6°C | 8.2% | 439.9hPa | 0V | 00:00:00 | 00:00:00 | 00:00:00 | |
| PU1XMG-16 | 2026-09-02 23:52:14 | -22.78984 | -43.13782 | 80° | 99km/h | 6732m | 5.8m/s | -18.4°C | 15.1% | 442.2hPa | 0V | 00:00:00 | 00:00:00 | 00:00:00 | |
| PU1XMG-16 | 2026-09-02 23:52:08 | -22.79029 | -43.13935 | 72° | 99km/h | 6698m | 7.0m/s | -19.1°C | 27.5% | 444.4hPa | 0V | 00:00:00 | 00:00:00 | 00:00:00 | |
| PU1XMG-16 | 2026-09-02 23:52:02 | -22.79063 | -43.14090 | 75° | 102km/h | 6662m | 4.9m/s | -18.9°C | 29.2% | 446.4hPa | 0V | 00:00:00 | 00:00:00 | 00:00:00 | |
| PU1XMG-16 | 2026-09-02 23:51:56 | -22.79108 | -43.14253 | 79° | 100km/h | 6628m | 5.6m/s | -18.7°C | 29.2% | 448.5hPa | 0V | 00:00:00 | 00:00:00 | 00:00:00 | |
| PU1XMG-16 | 2026-09-02 23:51:51 | -22.79145 | -43.14388 | 71° | 100km/h | 6597m | 7.5m/s | -18.4°C | 28.8% | 450.3hPa | 0V | 00:00:00 | 00:00:00 | 00:00:00 | |
| PU1XMG-16 | 2026-09-02 23:51:46 | -22.79184 | -43.14507 | 69° | 84km/h | 6565m | 4.1m/s | -18.1°C | 28.5% | 452.3hPa | 0V | 00:00:00 | 00:00:00 | 00:00:00 | |
| PU1XMG-16 | 2026-09-02 23:51:41 | -22.79216 | -43.14616 | 74° | 84km/h | 6536m | 8.3m/s | -17.8°C | 27.7% | 454.1hPa | 0V | 00:00:00 | 00:00:00 | 00:00:00 | |
| PU1XMG-16 | 2026-09-02 23:51:35 | -22.79247 | -43.14760 | 77° | 106km/h | 6490m | 6.3m/s | -17.3°C | 26.8% | 456.9hPa | 0V | 00:00:00 | 00:00:00 | 00:00:00 | |
| PU1XMG-16 | 2026-09-02 23:51:27 | -22.79305 | -43.14948 | 67° | 77km/h | 6443m | 8.3m/s | -16.9°C | 25.9% | 459.6hPa | 0V | 00:00:00 | 00:00:00 | 00:00:00 | |
| PU1XMG-16 | 2026-09-02 23:51:21 | -22.79354 | -43.15093 | 79° | 93km/h | 6406m | 6.8m/s | -16.5°C | 25.4% | 461.9hPa | 0V | 00:00:00 | 00:00:00 | 00:00:00 | |
| PU1XMG-16 | 2026-09-02 23:51:14 | -22.79406 | -43.15254 | 74° | 88km/h | 6357m | 5.8m/s | -16.1°C | 24.7% | 464.9hPa | 0V | 00:00:00 | 00:00:00 | 00:00:00 | |
| PU1XMG-16 | 2026-09-02 23:51:09 | -22.79444 | -43.15397 | 77° | 102km/h | 6318m | 9.0m/s | -15.7°C | 23.7% | 467.2hPa | 0V | 00:00:00 | 00:00:00 | 00:00:00 | |
| PU1XMG-16 | 2026-09-02 23:51:03 | -22.79469 | -43.15508 | 67° | 73km/h | 6286m | 7.7m/s | -15.4°C | 23.1% | 469.2hPa | 0V | 00:00:00 | 00:00:00 | 00:00:00 | |
| PU1XMG-16 | 2026-09-02 23:50:57 | -22.79525 | -43.15627 | 66° | 91km/h | 6254m | 8.1m/s | -15.1°C | 23.0% | 471.2hPa | 0V | 00:00:00 | 00:00:00 | 00:00:00 | |
| PU1XMG-16 | 2026-09-02 23:50:44 | -22.79626 | -43.15911 | 77° | 97km/h | 6167m | 6.0m/s | -14.2°C | 21.9% | 476.7hPa | 0V | 00:00:00 | 00:00:00 | 00:00:00 | |
| PU1XMG-16 | 2026-09-02 23:50:39 | -22.79646 | -43.16015 | 75° | 68km/h | 6140m | 5.5m/s | -14.0°C | 21.9% | 478.4hPa | 0V | 00:00:00 | 00:00:00 | 00:00:00 | |
| PU1XMG-16 | 2026-09-02 23:50:26 | -22.79719 | -43.16294 | 77° | 75km/h | 6070m | 5.6m/s | -13.3°C | 21.1% | 482.9hPa | 0V | 00:00:00 | 00:00:00 | 00:00:00 | |
| PU1XMG-16 | 2026-09-02 23:50:20 | -22.79759 | -43.16415 | 74° | 75km/h | 6041m | 4.7m/s | -13.1°C | 21.1% | 484.7hPa | 0V | 00:00:00 | 00:00:00 | 00:00:00 | |
| PU1XMG-16 | 2026-09-02 23:50:14 | -22.79797 | -43.16520 | 66° | 75km/h | 6010m | 4.9m/s | -12.9°C | 21.6% | 486.6hPa | 0V | 00:00:00 | 00:00:00 | 00:00:00 | |
| PU1XMG-16 | 2026-09-02 23:50:08 | -22.79833 | -43.16648 | 83° | 77km/h | 5977m | 9.0m/s | -12.6°C | 22.2% | 488.9hPa | 0V | 00:00:00 | 00:00:00 | 00:00:00 | |
| PU1XMG-16 | 2026-09-02 23:50:03 | -22.79865 | -43.16773 | 72° | 93km/h | 5945m | 6.1m/s | -12.3°C | 21.9% | 491.1hPa | 0V | 00:00:00 | 00:00:00 | 00:00:00 | |
| PU1XMG-16 | 2026-09-02 23:49:56 | -22.79895 | -43.16911 | 80° | 77km/h | 5907m | 8.7m/s | -12.0°C | 20.4% | 493.1hPa | 0V | 00:00:00 | 00:00:00 | 00:00:00 | |
| PU1XMG-16 | 2026-09-02 23:49:51 | -22.79910 | -43.17021 | 81° | 82km/h | 5877m | 5.9m/s | -11.7°C | 19.6% | 495.2hPa | 0V | 00:00:00 | 00:00:00 | 00:00:00 | |
| PU1XMG-16 | 2026-09-02 23:49:45 | -22.79947 | -43.17145 | 81° | 82km/h | 5845m | 5.8m/s | -11.4°C | 18.3% | 497.1hPa | 0V | 00:00:00 | 00:00:00 | 00:00:00 | |
| PU1XMG-16 | 2026-09-02 23:49:40 | -22.79965 | -43.17285 | 83° | 80km/h | 5808m | 7.5m/s | -11.1°C | 16.4% | 499.6hPa | 0V | 00:00:00 | 00:00:00 | 00:00:00 | |
| PU1XMG-16 | 2026-09-02 23:49:34 | -22.79984 | -43.17380 | 74° | 73km/h | 5780m | 4.2m/s | -10.9°C | 15.7% | 501.5hPa | 0V | 00:00:00 | 00:00:00 | 00:00:00 | |
| PU1XMG-16 | 2026-09-02 23:49:28 | -22.80009 | -43.17486 | 80° | 73km/h | 5746m | 8.4m/s | -10.6°C | 14.2% | 503.7hPa | 0V | 00:00:00 | 00:00:00 | 00:00:00 | |
| PU1XMG-16 | 2026-09-02 23:49:22 | -22.80038 | -43.17612 | 85° | 77km/h | 5704m | 8.4m/s | -10.6°C | 13.5% | 506.4hPa | 0V | 00:00:00 | 00:00:00 | 00:00:00 | |
| PU1XMG-16 | 2026-09-02 23:49:17 | -22.80036 | -43.17718 | 92° | 69km/h | 5669m | 3.8m/s | -10.4°C | 13.8% | 508.5hPa | 0V | 00:00:00 | 00:00:00 | 00:00:00 | |
| PU1XMG-16 | 2026-09-02 23:49:00 | -22.80060 | -43.18081 | 87° | 84km/h | 5571m | 4.8m/s | -9.5°C | 10.5% | 515.0hPa | 0V | 00:00:00 | 00:00:00 | 00:00:00 | |
| PU1XMG-16 | 2026-09-02 23:48:54 | -22.80076 | -43.18200 | 82° | 69km/h | 5533m | 4.9m/s | -9.2°C | 9.9% | 517.5hPa | 0V | 00:00:00 | 00:00:00 | 00:00:00 | |
| PU1XMG-16 | 2026-09-02 23:48:48 | -22.80084 | -43.18319 | 80° | 71km/h | 5499m | 5.7m/s | -8.8°C | 8.7% | 519.9hPa | 0V | 00:00:00 | 00:00:00 | 00:00:00 | |
| PU1XMG-16 | 2026-09-02 23:48:42 | -22.80092 | -43.18444 | 88° | 75km/h | 5463m | 10.0m/s | -8.5°C | 8.1% | 522.4hPa | 0V | 00:00:00 | 00:00:00 | 00:00:00 | |
| PU1XMG-16 | 2026-09-02 23:48:37 | -22.80096 | -43.18530 | 90° | 69km/h | 5433m | 5.2m/s | -8.2°C | 8.0% | 524.6hPa | 0V | 00:00:00 | 00:00:00 | 00:00:00 | |
| PU1XMG-16 | 2026-09-02 23:48:31 | -22.80093 | -43.18653 | 98° | 68km/h | 5396m | 4.8m/s | -7.8°C | 7.8% | 527.0hPa | 0V | 00:00:00 | 00:00:00 | 00:00:00 | |
| PU1XMG-16 | 2026-09-02 23:48:25 | -22.80083 | -43.18779 | 93° | 80km/h | 5359m | 5.6m/s | -7.5°C | 7.6% | 529.7hPa | 0V | 00:00:00 | 00:00:00 | 00:00:00 | |
| PU1XMG-16 | 2026-09-02 23:48:21 | -22.80079 | -43.18874 | 97° | 64km/h | 5331m | 7.6m/s | -7.2°C | 7.3% | 531.4hPa | 0V | 00:00:00 | 00:00:00 | 00:00:00 | |
| PU1XMG-16 | 2026-09-02 23:48:14 | -22.80073 | -43.18999 | 95° | 77km/h | 5296m | 9.2m/s | -6.9°C | 6.5% | 533.8hPa | 0V | 00:00:00 | 00:00:00 | 00:00:00 | |
| PU1XMG-16 | 2026-09-02 23:48:08 | -22.80078 | -43.19108 | 88° | 60km/h | 5253m | 4.0m/s | -6.5°C | 6.1% | 536.8hPa | 0V | 00:00:00 | 00:00:00 | 00:00:00 | |
| PU1XMG-16 | 2026-09-02 23:48:03 | -22.80090 | -43.19235 | 87° | 84km/h | 5213m | 5.4m/s | -6.1°C | 5.6% | 539.5hPa | 0V | 00:00:00 | 00:00:00 | 00:00:00 | |
| PU1XMG-16 | 2026-09-02 23:47:57 | -22.80103 | -43.19340 | 82° | 75km/h | 5182m | 8.1m/s | -5.8°C | 5.5% | 541.6hPa | 0V | 00:00:00 | 00:00:00 | 00:00:00 | |
| PU1XMG-16 | 2026-09-02 23:47:52 | -22.80101 | -43.19440 | 98° | 69km/h | 5151m | 6.6m/s | -5.5°C | 5.2% | 543.7hPa | 0V | 00:00:00 | 00:00:00 | 00:00:00 | |
| PU1XMG-16 | 2026-09-02 23:47:46 | -22.80095 | -43.19547 | 97° | 71km/h | 5121m | 5.4m/s | -5.2°C | 5.0% | 545.9hPa | 0V | 00:00:00 | 00:00:00 | 00:00:00 | |
| PU1XMG-16 | 2026-09-02 23:47:41 | -22.80094 | -43.19659 | 87° | 88km/h | 5094m | 11.6m/s | -4.9°C | 4.8% | 547.8hPa | 0V | 00:00:00 | 00:00:00 | 00:00:00 | |
| PU1XMG-16 | 2026-09-02 23:47:35 | -22.80095 | -43.19778 | 89° | 75km/h | 5046m | 6.7m/s | -4.5°C | 4.1% | 551.1hPa | 0V | 00:00:00 | 00:00:00 | 00:00:00 | |
| PU1XMG-16 | 2026-09-02 23:47:30 | -22.80100 | -43.19890 | 92° | 78km/h | 5016m | 5.3m/s | -4.3°C | 4.3% | 553.2hPa | 0V | 00:00:00 | 00:00:00 | 00:00:00 | |
| PU1XMG-16 | 2026-09-02 23:47:26 | -22.80104 | -43.19991 | 83° | 73km/h | 4985m | 6.2m/s | -4.0°C | 4.4% | 555.2hPa | 0V | 00:00:00 | 00:00:00 | 00:00:00 | |
| PU1XMG-16 | 2026-09-02 23:47:19 | -22.80107 | -43.20105 | 94° | 78km/h | 4951m | 7.2m/s | -3.7°C | 4.0% | 557.5hPa | 0V | 00:00:00 | 00:00:00 | 00:00:00 | |
| PU1XMG-16 | 2026-09-02 23:47:13 | -22.80100 | -43.20237 | 96° | 71km/h | 4916m | 5.2m/s | -3.4°C | 3.5% | 560.0hPa | 0V | 00:00:00 | 00:00:00 | 00:00:00 | |
| PU1XMG-16 | 2026-09-02 23:47:08 | -22.80097 | -43.20321 | 97° | 68km/h | 4889m | 4.9m/s | -3.2°C | 2.8% | 561.9hPa | 0V | 00:00:00 | 00:00:00 | 00:00:00 | |
| PU1XMG-16 | 2026-09-02 23:47:04 | -22.80097 | -43.20423 | 78° | 80km/h | 4854m | 5.4m/s | -2.9°C | 2.5% | 564.4hPa | 0V | 00:00:00 | 00:00:00 | 00:00:00 | |
| PU1XMG-16 | 2026-09-02 23:46:57 | -22.80117 | -43.20549 | 94° | 75km/h | 4820m | 8.6m/s | -2.7°C | 2.3% | 566.9hPa | 0V | 00:00:00 | 00:00:00 | 00:00:00 | |
| PU1XMG-16 | 2026-09-02 23:46:52 | -22.80109 | -43.20654 | 91° | 75km/h | 4787m | 5.2m/s | -2.5°C | 2.0% | 569.2hPa | 0V | 00:00:00 | 00:00:00 | 00:00:00 | |
| PU1XMG-16 | 2026-09-02 23:46:47 | -22.80106 | -43.20751 | 98° | 66km/h | 4757m | 7.1m/s | -2.2°C | 2.0% | 571.4hPa | 0V | 00:00:00 | 00:00:00 | 00:00:00 | |
| PU1XMG-16 | 2026-09-02 23:46:42 | -22.80119 | -43.20844 | 76° | 77km/h | 4725m | 6.6m/s | -2.1°C | 1.9% | 573.7hPa | 0V | 00:00:00 | 00:00:00 | 00:00:00 | |
| PU1XMG-16 | 2026-09-02 23:46:37 | -22.80123 | -43.20939 | 96° | 60km/h | 4695m | 5.7m/s | -1.9°C | 1.9% | 576.0hPa | 0V | 00:00:00 | 00:00:00 | 00:00:00 | |
| PU1XMG-16 | 2026-09-02 23:46:32 | -22.80120 | -43.21032 | 94° | 69km/h | 4663m | 11.0m/s | -1.8°C | 1.9% | 578.2hPa | 0V | 00:00:00 | 00:00:00 | 00:00:00 | |
| PU1XMG-16 | 2026-09-02 23:46:26 | -22.80125 | -43.21129 | 82° | 66km/h | 4615m | 4.9m/s | -1.8°C | 1.5% | 581.8hPa | 0V | 00:00:00 | 00:00:00 | 00:00:00 | |
| PU1XMG-16 | 2026-09-02 23:46:21 | -22.80147 | -43.21212 | 68° | 57km/h | 4586m | 5.5m/s | -1.7°C | 1.4% | 583.9hPa | 0V | 00:00:00 | 00:00:00 | 00:00:00 | |
| PU1XMG-16 | 2026-09-02 23:46:15 | -22.80168 | -43.21299 | 94° | 51km/h | 4545m | 6.5m/s | -1.5°C | 1.2% | 586.9hPa | 0V | 00:00:00 | 00:00:00 | 00:00:00 | |
| PU1XMG-16 | 2026-09-02 23:46:09 | -22.80167 | -43.21389 | 84° | 55km/h | 4500m | 5.6m/s | -1.3°C | 1.2% | 590.2hPa | 0V | 00:00:00 | 00:00:00 | 00:00:00 | |
| PU1XMG-16 | 2026-09-02 23:46:04 | -22.80187 | -43.21469 | 73° | 55km/h | 4461m | 4.8m/s | -1.3°C | 1.1% | 592.8hPa | 0V | 00:00:00 | 00:00:00 | 00:00:00 | |
| PU1XMG-16 | 2026-09-02 23:45:59 | -22.80193 | -43.21542 | 87° | 57km/h | 4432m | 6.3m/s | -1.6°C | 1.2% | 595.0hPa | 0V | 00:00:00 | 00:00:00 | 00:00:00 | |
| PU1XMG-16 | 2026-09-02 23:45:53 | -22.80209 | -43.21629 | 87° | 57km/h | 4390m | 5.7m/s | -1.3°C | 1.3% | 598.2hPa | 0V | 00:00:00 | 00:00:00 | 00:00:00 | |
| PU1XMG-16 | 2026-09-02 23:45:48 | -22.80217 | -43.21699 | 73° | 53km/h | 4365m | 4.3m/s | -1.1°C | 1.3% | 600.4hPa | 0V | 00:00:00 | 00:00:00 | 00:00:00 | |
| PU1XMG-16 | 2026-09-02 23:45:42 | -22.80230 | -43.21788 | 93° | 58km/h | 4332m | 6.1m/s | -0.9°C | 1.1% | 602.8hPa | 0V | 00:00:00 | 00:00:00 | 00:00:00 | |
| PU1XMG-16 | 2026-09-02 23:45:36 | -22.80230 | -43.21878 | 83° | 49km/h | 4295m | 6.6m/s | -0.7°C | 0.9% | 605.5hPa | 0V | 00:00:00 | 00:00:00 | 00:00:00 | |
| PU1XMG-16 | 2026-09-02 23:45:31 | -22.80246 | -43.21931 | 74° | 42km/h | 4267m | 5.5m/s | -0.6°C | 1.0% | 607.9hPa | 0V | 00:00:00 | 00:00:00 | 00:00:00 | |
| PU1XMG-16 | 2026-09-02 23:45:25 | -22.80272 | -43.22019 | 69° | 62km/h | 4233m | 6.1m/s | -0.7°C | 0.9% | 610.6hPa | 0V | 00:00:00 | 00:00:00 | 00:00:00 | |
| PU1XMG-16 | 2026-09-02 23:45:19 | -22.80297 | -43.22108 | 77° | 40km/h | 4194m | 9.1m/s | -1.1°C | 1.4% | 613.3hPa | 0V | 00:00:00 | 00:00:00 | 00:00:00 | |
| PU1XMG-16 | 2026-09-02 23:45:13 | -22.80309 | -43.22162 | 83° | 42km/h | 4158m | 6.2m/s | -1.3°C | 1.8% | 616.2hPa | 0V | 00:00:00 | 00:00:00 | 00:00:00 | |
| PU1XMG-16 | 2026-09-02 23:45:08 | -22.80313 | -43.22216 | 74° | 33km/h | 4128m | 5.5m/s | -1.8°C | 2.0% | 618.4hPa | 0V | 00:00:00 | 00:00:00 | 00:00:00 | |
| PU1XMG-16 | 2026-09-02 23:45:03 | -22.80333 | -43.22271 | 76° | 53km/h | 4096m | 6.1m/s | -1.7°C | 1.9% | 620.9hPa | 0V | 00:00:00 | 00:00:00 | 00:00:00 | |
| PU1XMG-16 | 2026-09-02 23:44:57 | -22.80367 | -43.22341 | 49° | 33km/h | 4061m | 7.8m/s | -1.8°C | 2.1% | 623.5hPa | 0V | 00:00:00 | 00:00:00 | 00:00:00 | |
| PU1XMG-16 | 2026-09-02 23:44:51 | -22.80388 | -43.22385 | 70° | 44km/h | 4024m | 6.0m/s | -1.6°C | 2.1% | 626.4hPa | 0V | 00:00:00 | 00:00:00 | 00:00:00 | |
| PU1XMG-16 | 2026-09-02 23:44:46 | -22.80406 | -43.22438 | 60° | 31km/h | 3997m | 6.2m/s | -1.4°C | 2.2% | 628.6hPa | 0V | 00:00:00 | 00:00:00 | 00:00:00 | |
| PU1XMG-16 | 2026-09-02 23:44:40 | -22.80432 | -43.22478 | 79° | 33km/h | 3957m | 4.5m/s | -1.1°C | 1.8% | 631.8hPa | 0V | 00:00:00 | 00:00:00 | 00:00:00 | |
| PU1XMG-16 | 2026-09-02 23:44:35 | -22.80453 | -43.22532 | 51° | 44km/h | 3929m | 6.3m/s | -0.9°C | 1.7% | 634.0hPa | 0V | 00:00:00 | 00:00:00 | 00:00:00 | |
| PU1XMG-16 | 2026-09-02 23:44:23 | -22.80507 | -43.22624 | 63° | 35km/h | 3854m | 7.6m/s | -0.3°C | 1.6% | 640.0hPa | 0V | 00:00:00 | 00:00:00 | 00:00:00 | |
| PU1XMG-16 | 2026-09-02 23:44:18 | -22.80528 | -43.22675 | 57° | 35km/h | 3821m | 5.2m/s | -0.1°C | 1.5% | 642.8hPa | 0V | 00:00:00 | 00:00:00 | 00:00:00 | |
| PU1XMG-16 | 2026-09-02 23:44:12 | -22.80551 | -43.22717 | 61° | 35km/h | 3787m | 6.5m/s | -0.2°C | 1.9% | 645.3hPa | 0V | 00:00:00 | 00:00:00 | 00:00:00 | |
| PU1XMG-16 | 2026-09-02 23:44:07 | -22.80568 | -43.22754 | 79° | 31km/h | 3754m | 6.0m/s | -0.5°C | 3.0% | 648.0hPa | 0V | 00:00:00 | 00:00:00 | 00:00:00 | |
| PU1XMG-16 | 2026-09-02 23:44:02 | -22.80584 | -43.22792 | 67° | 27km/h | 3724m | 9.2m/s | -0.4°C | 3.4% | 650.5hPa | 0V | 00:00:00 | 00:00:00 | 00:00:00 | |
| PU1XMG-16 | 2026-09-02 23:43:57 | -22.80596 | -43.22835 | 56° | 31km/h | 3693m | 7.0m/s | -0.1°C | 3.5% | 653.1hPa | 0V | 00:00:00 | 00:00:00 | 00:00:00 | |
| PU1XMG-16 | 2026-09-02 23:43:51 | -22.80622 | -43.22879 | 70° | 44km/h | 3653m | 6.9m/s | 0.3°C | 3.5% | 656.3hPa | 0V | 00:00:00 | 00:00:00 | 00:00:00 | |
| PU1XMG-16 | 2026-09-02 23:43:47 | -22.80643 | -43.22938 | 72° | 44km/h | 3622m | 8.9m/s | 0.6°C | 3.5% | 658.7hPa | 0V | 00:00:00 | 00:00:00 | 00:00:00 | |
| PU1XMG-16 | 2026-09-02 23:43:40 | -22.80660 | -43.22995 | 62° | 40km/h | 3579m | 5.5m/s | 0.6°C | 7.5% | 662.3hPa | 0V | 00:00:00 | 00:00:00 | 00:00:00 | |
| PU1XMG-16 | 2026-09-02 23:43:35 | -22.80675 | -43.23044 | 72° | 26km/h | 3549m | 8.7m/s | 0.3°C | 10.7% | 664.6hPa | 0V | 00:00:00 | 00:00:00 | 00:00:00 | |
| PU1XMG-16 | 2026-09-02 23:43:29 | -22.80687 | -43.23082 | 86° | 29km/h | 3509m | 8.1m/s | 0.0°C | 9.5% | 667.9hPa | 0V | 00:00:00 | 00:00:00 | 00:00:00 | |
| PU1XMG-16 | 2026-09-02 23:43:24 | -22.80696 | -43.23126 | 89° | 29km/h | 3477m | 9.5m/s | -0.4°C | 15.4% | 670.5hPa | 0V | 00:00:00 | 00:00:00 | 00:00:00 | |
| PU1XMG-16 | 2026-09-02 23:43:19 | -22.80691 | -43.23180 | 90° | 40km/h | 3447m | 5.0m/s | -0.8°C | 35.2% | 673.4hPa | 0V | 00:00:00 | 00:00:00 | 00:00:00 | |
| PU1XMG-16 | 2026-09-02 23:43:13 | -22.80690 | -43.23225 | 100° | 26km/h | 3410m | 7.4m/s | -0.8°C | 51.6% | 676.3hPa | 0V | 00:00:00 | 00:00:00 | 00:00:00 | |
| PU1XMG-16 | 2026-09-02 23:43:07 | -22.80677 | -43.23284 | 125° | 35km/h | 3374m | 6.2m/s | -0.5°C | 57.7% | 679.7hPa | 0V | 00:00:00 | 00:00:00 | 00:00:00 | |
| PU1XMG-16 | 2026-09-02 23:43:01 | -22.80659 | -43.23334 | 87° | 40km/h | 3337m | 6.5m/s | -0.2°C | 55.4% | 682.4hPa | 0V | 00:00:00 | 00:00:00 | 00:00:00 | |
| PU1XMG-16 | 2026-09-02 23:42:55 | -22.80644 | -43.23400 | 117° | 37km/h | 3299m | 5.1m/s | 0.1°C | 60.4% | 685.7hPa | 0V | 00:00:00 | 00:00:00 | 00:00:00 | |
| PU1XMG-16 | 2026-09-02 23:42:50 | -22.80642 | -43.23456 | 92° | 42km/h | 3257m | 5.4m/s | 0.6°C | 56.9% | 689.4hPa | 0V | 00:00:00 | 00:00:00 | 00:00:00 | |
| PU1XMG-16 | 2026-09-02 23:42:43 | -22.80619 | -43.23524 | 103° | 46km/h | 3223m | 7.8m/s | 0.8°C | 69.6% | 692.5hPa | 0V | 00:00:00 | 00:00:00 | 00:00:00 | |
| PU1XMG-16 | 2026-09-02 23:42:38 | -22.80616 | -43.23586 | 99° | 42km/h | 3187m | 4.9m/s | 1.2°C | 62.5% | 695.5hPa | 0V | 00:00:00 | 00:00:00 | 00:00:00 | |
| PU1XMG-16 | 2026-09-02 23:42:32 | -22.80605 | -43.23654 | 100° | 38km/h | 3153m | 6.4m/s | 1.5°C | 62.5% | 698.3hPa | 0V | 00:00:00 | 00:00:00 | 00:00:00 | |
| PU1XMG-16 | 2026-09-02 23:42:26 | -22.80580 | -43.23697 | 122° | 38km/h | 3109m | 5.4m/s | 1.8°C | 71.5% | 702.1hPa | 0V | 00:00:00 | 00:00:00 | 00:00:00 | |
| PU1XMG-16 | 2026-09-02 23:42:20 | -22.80571 | -43.23760 | 88° | 47km/h | 3068m | 10.6m/s | 2.2°C | 70.1% | 705.6hPa | 0V | 00:00:00 | 00:00:00 | 00:00:00 | |
| PU1XMG-16 | 2026-09-02 23:42:15 | -22.80557 | -43.23823 | 110° | 35km/h | 3033m | 5.7m/s | 2.5°C | 70.5% | 708.7hPa | 0V | 00:00:00 | 00:00:00 | 00:00:00 | |
| PU1XMG-16 | 2026-09-02 23:42:10 | -22.80559 | -43.23869 | 86° | 42km/h | 3007m | 4.8m/s | 2.8°C | 68.9% | 711.0hPa | 0V | 00:00:00 | 00:00:00 | 00:00:00 | |
| PU1XMG-16 | 2026-09-02 23:42:05 | -22.80548 | -43.23925 | 111° | 44km/h | 2976m | 9.2m/s | 3.1°C | 66.3% | 713.8hPa | 0V | 00:00:00 | 00:00:00 | 00:00:00 | |
| PU1XMG-16 | 2026-09-02 23:41:59 | -22.80543 | -43.23994 | 96° | 33km/h | 2934m | 6.5m/s | 3.5°C | 60.1% | 717.5hPa | 0V | 00:00:00 | 00:00:00 | 00:00:00 | |
| PU1XMG-16 | 2026-09-02 23:41:54 | -22.80536 | -43.24042 | 97° | 44km/h | 2902m | 6.2m/s | 3.8°C | 64.7% | 720.3hPa | 0V | 00:00:00 | 00:00:00 | 00:00:00 | |
| PU1XMG-16 | 2026-09-02 23:41:48 | -22.80516 | -43.24100 | 117° | 31km/h | 2865m | 6.6m/s | 4.2°C | 54.0% | 723.5hPa | 0V | 00:00:00 | 00:00:00 | 00:00:00 | |
| PU1XMG-16 | 2026-09-02 23:41:43 | -22.80512 | -43.24136 | 92° | 22km/h | 2835m | 10.3m/s | 4.5°C | 52.6% | 726.2hPa | 0V | 00:00:00 | 00:00:00 | 00:00:00 | |
| PU1XMG-16 | 2026-09-02 23:41:37 | -22.80505 | -43.24180 | 99° | 37km/h | 2797m | 4.7m/s | 4.9°C | 54.3% | 729.6hPa | 0V | 00:00:00 | 00:00:00 | 00:00:00 | |
| PU1XMG-16 | 2026-09-02 23:41:32 | -22.80487 | -43.24228 | 117° | 37km/h | 2770m | 6.5m/s | 5.2°C | 54.5% | 732.3hPa | 0V | 00:00:00 | 00:00:00 | 00:00:00 | |
| PU1XMG-16 | 2026-09-02 23:41:26 | -22.80475 | -43.24294 | 104° | 46km/h | 2735m | 9.1m/s | 5.6°C | 50.0% | 735.3hPa | 0V | 00:00:00 | 00:00:00 | 00:00:00 | |
| PU1XMG-16 | 2026-09-02 23:41:21 | -22.80459 | -43.24343 | 94° | 40km/h | 2706m | 4.9m/s | 5.6°C | 59.5% | 738.0hPa | 0V | 00:00:00 | 00:00:00 | 00:00:00 | |
| PU1XMG-16 | 2026-09-02 23:41:15 | -22.80459 | -43.24417 | 102° | 37km/h | 2670m | 8.7m/s | 5.7°C | 64.2% | 741.2hPa | 0V | 00:00:00 | 00:00:00 | 00:00:00 | |
| PU1XMG-16 | 2026-09-02 23:41:10 | -22.80442 | -43.24462 | 106° | 33km/h | 2645m | 5.0m/s | 5.9°C | 66.7% | 743.6hPa | 0V | 00:00:00 | 00:00:00 | 00:00:00 | |
| PU1XMG-16 | 2026-09-02 23:41:05 | -22.80444 | -43.24504 | 89° | 37km/h | 2613m | 7.4m/s | 6.2°C | 57.4% | 746.5hPa | 0V | 00:00:00 | 00:00:00 | 00:00:00 | |
| PU1XMG-16 | 2026-09-02 23:40:59 | -22.80445 | -43.24567 | 87° | 42km/h | 2573m | 9.1m/s | 6.4°C | 50.0% | 750.2hPa | 0V | 00:00:00 | 00:00:00 | 00:00:00 | |
| PU1XMG-16 | 2026-09-02 23:40:54 | -22.80443 | -43.24628 | 88° | 42km/h | 2543m | 7.6m/s | 6.6°C | 47.3% | 752.8hPa | 0V | 00:00:00 | 00:00:00 | 00:00:00 | |
| PU1XMG-16 | 2026-09-02 23:40:48 | -22.80450 | -43.24671 | 70° | 27km/h | 2501m | 6.2m/s | 6.9°C | 44.7% | 756.7hPa | 0V | 00:00:00 | 00:00:00 | 00:00:00 | |
| PU1XMG-16 | 2026-09-02 23:40:42 | -22.80453 | -43.24706 | 101° | 18km/h | 2462m | 6.6m/s | 7.0°C | 50.5% | 760.2hPa | 0V | 00:00:00 | 00:00:00 | 00:00:00 | |
| PU1XMG-16 | 2026-09-02 23:40:36 | -22.80460 | -43.24742 | 74° | 33km/h | 2429m | 5.8m/s | 7.3°C | 48.9% | 763.1hPa | 0V | 00:00:00 | 00:00:00 | 00:00:00 | |
| PU1XMG-16 | 2026-09-02 23:40:32 | -22.80460 | -43.24775 | 112° | 15km/h | 2398m | 5.0m/s | 7.6°C | 47.8% | 765.9hPa | 0V | 00:00:00 | 00:00:00 | 00:00:00 | |
| PU1XMG-16 | 2026-09-02 23:40:26 | -22.80468 | -43.24803 | 58° | 33km/h | 2367m | 5.8m/s | 7.9°C | 47.5% | 768.7hPa | 0V | 00:00:00 | 00:00:00 | 00:00:00 | |
| PU1XMG-16 | 2026-09-02 23:40:14 | -22.80480 | -43.24899 | 92° | 22km/h | 2294m | 7.8m/s | 8.1°C | 50.7% | 775.6hPa | 0V | 00:00:00 | 00:00:00 | 00:00:00 | |
| PU1XMG-16 | 2026-09-02 23:40:09 | -22.80493 | -43.24930 | 44° | 18km/h | 2264m | 8.1m/s | 8.0°C | 52.5% | 778.6hPa | 0V | 00:00:00 | 00:00:00 | 00:00:00 | |
| PU1XMG-16 | 2026-09-02 23:40:03 | -22.80504 | -43.24955 | 63° | 15km/h | 2230m | 8.6m/s | 7.8°C | 64.1% | 781.9hPa | 0V | 00:00:00 | 00:00:00 | 00:00:00 | |
| PU1XMG-16 | 2026-09-02 23:39:58 | -22.80514 | -43.24973 | 51° | 27km/h | 2195m | 5.5m/s | 7.8°C | 65.3% | 785.2hPa | 0V | 00:00:00 | 00:00:00 | 00:00:00 | |
| PU1XMG-16 | 2026-09-02 23:39:53 | -22.80540 | -43.25010 | 66° | 31km/h | 2168m | 5.7m/s | 7.7°C | 69.9% | 787.9hPa | 0V | 00:00:00 | 00:00:00 | 00:00:00 | |
| PU1XMG-16 | 2026-09-02 23:39:47 | -22.80554 | -43.25049 | 75° | 29km/h | 2134m | 6.7m/s | 7.4°C | 79.4% | 791.0hPa | 0V | 00:00:00 | 00:00:00 | 00:00:00 | |
| PU1XMG-16 | 2026-09-02 23:39:42 | -22.80572 | -43.25080 | 31° | 29km/h | 2103m | 4.1m/s | 7.0°C | 88.5% | 794.1hPa | 0V | 00:00:00 | 00:00:00 | 00:00:00 | |
| PU1XMG-16 | 2026-09-02 23:39:37 | -22.80599 | -43.25102 | 63° | 29km/h | 2074m | 5.9m/s | 6.9°C | 93.5% | 797.1hPa | 0V | 00:00:00 | 00:00:00 | 00:00:00 | |
| PU1XMG-16 | 2026-09-02 23:39:31 | -22.80619 | -43.25141 | 67° | 26km/h | 2039m | 5.2m/s | 7.0°C | 94.2% | 800.0hPa | 0V | 00:00:00 | 00:00:00 | 00:00:00 | |
| PU1XMG-16 | 2026-09-02 23:39:25 | -22.80622 | -43.25173 | 102° | 16km/h | 2010m | 5.3m/s | 7.1°C | 93.4% | 803.0hPa | 0V | 00:00:00 | 00:00:00 | 00:00:00 | |
| PU1XMG-16 | 2026-09-02 23:39:20 | -22.80620 | -43.25188 | 59° | 9km/h | 1981m | 8.4m/s | 7.3°C | 93.8% | 805.9hPa | 0V | 00:00:00 | 00:00:00 | 00:00:00 | |
| PU1XMG-16 | 2026-09-02 23:39:15 | -22.80625 | -43.25196 | 85° | 11km/h | 1949m | 5.4m/s | 7.2°C | 95.7% | 809.1hPa | 0V | 00:00:00 | 00:00:00 | 00:00:00 | |
| PU1XMG-16 | 2026-09-02 23:39:09 | -22.80635 | -43.25201 | 2° | 2km/h | 1911m | 4.7m/s | 7.3°C | 97.3% | 812.7hPa | 0V | 00:00:00 | 00:00:00 | 00:00:00 | |
| PU1XMG-16 | 2026-09-02 23:39:03 | -22.80639 | -43.25196 | 271° | 5km/h | 1876m | 5.8m/s | 7.5°C | 93.7% | 816.0hPa | 0V | 00:00:00 | 00:00:00 | 00:00:00 | |
| PU1XMG-16 | 2026-09-02 23:38:58 | -22.80640 | -43.25194 | 84° | 9km/h | 1845m | 5.7m/s | 7.7°C | 92.8% | 819.2hPa | 0V | 00:00:00 | 00:00:00 | 00:00:00 | |
| PU1XMG-16 | 2026-09-02 23:38:52 | -22.80655 | -43.25198 | 358° | 16km/h | 1815m | 8.3m/s | 8.0°C | 91.4% | 822.0hPa | 0V | 00:00:00 | 00:00:00 | 00:00:00 | |
| PU1XMG-16 | 2026-09-02 23:38:47 | -22.80659 | -43.25202 | 168° | 5km/h | 1788m | 7.3m/s | 8.1°C | 93.9% | 824.8hPa | 0V | 00:00:00 | 00:00:00 | 00:00:00 | |
| PU1XMG-16 | 2026-09-02 23:38:42 | -22.80665 | -43.25203 | 360° | 5km/h | 1761m | 9.3m/s | 8.2°C | 94.2% | 827.5hPa | 0V | 00:00:00 | 00:00:00 | 00:00:00 | |
| PU1XMG-16 | 2026-09-02 23:38:37 | -22.80667 | -43.25213 | 63° | 18km/h | 1733m | 7.1m/s | 8.3°C | 93.4% | 830.4hPa | 0V | 00:00:00 | 00:00:00 | 00:00:00 | |
| PU1XMG-16 | 2026-09-02 23:38:31 | -22.80684 | -43.25234 | 50° | 13km/h | 1704m | 6.1m/s | 8.5°C | 92.7% | 833.5hPa | 0V | 00:00:00 | 00:00:00 | 00:00:00 | |
| PU1XMG-16 | 2026-09-02 23:38:26 | -22.80693 | -43.25243 | 361° | 9km/h | 1665m | 4.9m/s | 8.7°C | 93.9% | 836.8hPa | 0V | 00:00:00 | 00:00:00 | 00:00:00 | |
| PU1XMG-16 | 2026-09-02 23:38:19 | -22.80699 | -43.25240 | 354° | 9km/h | 1635m | 3.8m/s | 8.9°C | 94.4% | 840.2hPa | 0V | 00:00:00 | 00:00:00 | 00:00:00 | |
| PU1XMG-16 | 2026-09-02 23:38:14 | -22.80705 | -43.25233 | 271° | 2km/h | 1603m | 8.4m/s | 9.2°C | 92.7% | 843.3hPa | 0V | 00:00:00 | 00:00:00 | 00:00:00 | |
| PU1XMG-16 | 2026-09-02 23:38:08 | -22.80715 | -43.25229 | 276° | 9km/h | 1570m | 6.4m/s | 9.5°C | 85.8% | 846.8hPa | 0V | 00:00:00 | 00:00:00 | 00:00:00 | |
| PU1XMG-16 | 2026-09-02 23:38:03 | -22.80717 | -43.25231 | 17° | 11km/h | 1544m | 6.0m/s | 9.7°C | 85.0% | 849.4hPa | 0V | 00:00:00 | 00:00:00 | 00:00:00 | |
| PU1XMG-16 | 2026-09-02 23:37:57 | -22.80723 | -43.25227 | 118° | 4km/h | 1514m | 5.2m/s | 9.8°C | 85.8% | 852.6hPa | 0V | 00:00:00 | 00:00:00 | 00:00:00 | |
| PU1XMG-16 | 2026-09-02 23:37:52 | -22.80725 | -43.25223 | 0° | 0km/h | 1484m | 8.1m/s | 10.0°C | 86.4% | 855.4hPa | 0V | 00:00:00 | 00:00:00 | 00:00:00 | |
| PU1XMG-16 | 2026-09-02 23:37:47 | -22.80734 | -43.25229 | 341° | 13km/h | 1459m | 4.0m/s | 10.0°C | 92.9% | 858.2hPa | 0V | 00:00:00 | 00:00:00 | 00:00:00 | |
| PU1XMG-16 | 2026-09-02 23:37:42 | -22.80736 | -43.25225 | 121° | 5km/h | 1433m | 3.8m/s | 10.2°C | 97.9% | 861.1hPa | 0V | 00:00:00 | 00:00:00 | 00:00:00 | |
| PU1XMG-16 | 2026-09-02 23:37:36 | -22.80741 | -43.25221 | 0° | 0km/h | 1400m | 5.9m/s | 10.5°C | 97.6% | 864.4hPa | 0V | 00:00:00 | 00:00:00 | 00:00:00 | |
| PU1XMG-16 | 2026-09-02 23:37:32 | -22.80751 | -43.25224 | 352° | 16km/h | 1372m | 6.0m/s | 10.7°C | 96.9% | 867.2hPa | 0V | 00:00:00 | 00:00:00 | 00:00:00 | |
| PU1XMG-16 | 2026-09-02 23:37:25 | -22.80753 | -43.25226 | 198° | 5km/h | 1336m | 7.6m/s | 11.0°C | 96.8% | 870.9hPa | 0V | 00:00:00 | 00:00:00 | 00:00:00 | |
| PU1XMG-16 | 2026-09-02 23:37:20 | -22.80756 | -43.25219 | 264° | 9km/h | 1306m | 8.5m/s | 11.3°C | 94.9% | 874.1hPa | 0V | 00:00:00 | 00:00:00 | 00:00:00 | |
| PU1XMG-16 | 2026-09-02 23:37:14 | -22.80753 | -43.25220 | 330° | 5km/h | 1271m | 4.7m/s | 11.5°C | 86.0% | 878.1hPa | 0V | 00:00:00 | 00:00:00 | 00:00:00 | |
| PU1XMG-16 | 2026-09-02 23:37:09 | -22.80760 | -43.25217 | 324° | 7km/h | 1238m | 8.1m/s | 11.8°C | 84.9% | 881.1hPa | 0V | 00:00:00 | 00:00:00 | 00:00:00 | |
| PU1XMG-16 | 2026-09-02 23:37:04 | -22.80755 | -43.25207 | 164° | 5km/h | 1205m | 4.6m/s | 12.1°C | 83.1% | 884.5hPa | 0V | 00:00:00 | 00:00:00 | 00:00:00 | |
| PU1XMG-16 | 2026-09-02 23:36:59 | -22.80758 | -43.25203 | 272° | 7km/h | 1176m | 6.1m/s | 12.3°C | 80.9% | 887.3hPa | 0V | 00:00:00 | 00:00:00 | 00:00:00 | |
| PU1XMG-16 | 2026-09-02 23:36:53 | -22.80753 | -43.25197 | 255° | 9km/h | 1145m | 5.3m/s | 12.6°C | 79.8% | 890.6hPa | 0V | 00:00:00 | 00:00:00 | 00:00:00 | |
| PU1XMG-16 | 2026-09-02 23:36:48 | -22.80742 | -43.25186 | 194° | 11km/h | 1120m | 7.8m/s | 12.9°C | 78.2% | 893.4hPa | 0V | 00:00:00 | 00:00:00 | 00:00:00 | |
| PU1XMG-16 | 2026-09-02 23:36:43 | -22.80734 | -43.25182 | 280° | 5km/h | 1083m | 4.1m/s | 13.3°C | 76.1% | 897.7hPa | 0V | 00:00:00 | 00:00:00 | 00:00:00 | |
| PU1XMG-16 | 2026-09-02 23:36:37 | -22.80727 | -43.25180 | 266° | 9km/h | 1051m | 5.7m/s | 13.5°C | 74.3% | 900.9hPa | 0V | 00:00:00 | 00:00:00 | 00:00:00 | |
| PU1XMG-16 | 2026-09-02 23:36:31 | -22.80729 | -43.25176 | 88° | 5km/h | 1018m | 7.1m/s | 13.8°C | 73.1% | 904.5hPa | 0V | 00:00:00 | 00:00:00 | 00:00:00 | |
| PU1XMG-16 | 2026-09-02 23:36:26 | -22.80733 | -43.25180 | 349° | 9km/h | 986m | 5.5m/s | 14.1°C | 71.6% | 907.9hPa | 0V | 00:00:00 | 00:00:00 | 00:00:00 | |
| PU1XMG-16 | 2026-09-02 23:36:21 | -22.80737 | -43.25171 | 351° | 4km/h | 957m | 5.4m/s | 14.3°C | 70.6% | 911.1hPa | 0V | 00:00:00 | 00:00:00 | 00:00:00 | |
| PU1XMG-16 | 2026-09-02 23:36:15 | -22.80740 | -43.25160 | 207° | 7km/h | 927m | 4.6m/s | 14.6°C | 68.5% | 914.4hPa | 0V | 00:00:00 | 00:00:00 | 00:00:00 | |
| PU1XMG-16 | 2026-09-02 23:36:10 | -22.80737 | -43.25149 | 280° | 18km/h | 899m | 6.6m/s | 14.7°C | 69.0% | 917.2hPa | 0V | 00:00:00 | 00:00:00 | 00:00:00 | |
| PU1XMG-16 | 2026-09-02 23:36:05 | -22.80753 | -43.25130 | 325° | 24km/h | 865m | 8.5m/s | 15.0°C | 67.8% | 920.8hPa | 0V | 00:00:00 | 00:00:00 | 00:00:00 | |
| PU1XMG-16 | 2026-09-02 23:35:59 | -22.80765 | -43.25113 | 292° | 13km/h | 830m | 8.6m/s | 15.2°C | 0% | 924.5hPa | 0V | 00:00:00 | 00:00:00 | 00:00:00 | |
| PU1XMG-16 | 2026-09-02 23:35:53 | -22.80778 | -43.25099 | 284° | 11km/h | 795m | 7.8m/s | 15.4°C | 0% | 928.5hPa | 0V | 00:00:00 | 00:00:00 | 00:00:00 | |
| PU1XMG-16 | 2026-09-02 23:35:48 | -22.80787 | -43.25086 | 345° | 2km/h | 766m | 5.9m/s | 15.5°C | 0% | 931.5hPa | 0V | 00:00:00 | 00:00:00 | 00:00:00 | |
| PU1XMG-16 | 2026-09-02 23:35:42 | -22.80777 | -43.25081 | 241° | 2km/h | 736m | 6.4m/s | 15.5°C | 0% | 0hPa | 0V | 00:00:00 | 00:00:00 | 00:00:00 | |
| PU1XMG-16 | 2026-09-02 23:35:37 | -22.80777 | -43.25080 | 180° | 9km/h | 708m | 5.7m/s | 15.5°C | 0% | 0hPa | 0V | 00:00:00 | 00:00:00 | 00:00:00 | |
| PU1XMG-16 | 2026-09-02 23:35:31 | -22.80776 | -43.25084 | 276° | 5km/h | 672m | 6.3m/s | 15.6°C | 0% | 0hPa | 0V | 00:00:00 | 00:00:00 | 00:00:00 | |
| PU1XMG-16 | 2026-09-02 23:35:27 | -22.80768 | -43.25082 | 127° | 5km/h | 646m | 5.6m/s | 15.9°C | 0% | 0hPa | 0V | 00:00:00 | 00:00:00 | 00:00:00 | |
| PU1XMG-16 | 2026-09-02 23:35:21 | -22.80763 | -43.25090 | 138° | 15km/h | 615m | 6.7m/s | 16.1°C | 0% | 0hPa | 0V | 00:00:00 | 00:00:00 | 00:00:00 | |
| PU1XMG-16 | 2026-09-02 23:35:15 | -22.80753 | -43.25091 | 292° | 7km/h | 579m | 5.2m/s | 16.3°C | 0% | 0hPa | 0V | 00:00:00 | 00:00:00 | 00:00:00 | |
| PU1XMG-16 | 2026-09-02 23:35:10 | -22.80757 | -43.25093 | 142° | 4km/h | 554m | 4.0m/s | 16.6°C | 0% | 0hPa | 0V | 00:00:00 | 00:00:00 | 00:00:00 | |
| PU1XMG-16 | 2026-09-02 23:35:05 | -22.80759 | -43.25084 | 316° | 15km/h | 529m | 6.0m/s | 0°C | 0% | 0hPa | 0V | 00:00:00 | 00:00:00 | 00:00:00 | |
| PU1XMG-16 | 2026-09-02 23:35:00 | -22.80761 | -43.25072 | 195° | 5km/h | 501m | 6.7m/s | 0°C | 0% | 0hPa | 0V | 00:00:00 | 00:00:00 | 00:00:00 | |
| PU1XMG-16 | 2026-09-02 23:34:54 | -22.80759 | -43.25069 | 0° | 0km/h | 455m | 7.0m/s | 0°C | 0% | 0hPa | 0V | 00:00:00 | 00:00:00 | 00:00:00 | |
| PU1XMG-16 | 2026-09-02 23:34:49 | -22.80760 | -43.25072 | 74° | 5km/h | 439m | 9.2m/s | 0°C | 0% | 0hPa | 0V | 00:00:00 | 00:00:00 | 00:00:00 | |
| PU1XMG-16 | 2026-09-02 23:34:43 | -22.80764 | -43.25073 | 146° | 5km/h | 395m | 6.8m/s | 0°C | 0% | 0hPa | 0V | 00:00:00 | 00:00:00 | 00:00:00 | |
| PU1XMG-16 | 2026-09-02 23:34:38 | -22.80761 | -43.25079 | 276° | 7km/h | 364m | 5.9m/s | 0°C | 0% | 0hPa | 0V | 00:00:00 | 00:00:00 | 00:00:00 | |
| PU1XMG-16 | 2026-09-02 23:34:33 | -22.80766 | -43.25062 | 45° | 2km/h | 328m | 4.4m/s | 0°C | 0% | 0hPa | 0V | 00:00:00 | 00:00:00 | 00:00:00 | |
| PU1XMG-16 | 2026-09-02 23:34:27 | -22.80777 | -43.25061 | 329° | 18km/h | 299m | 4.0m/s | 0°C | 0% | 0hPa | 0V | 00:00:00 | 00:00:00 | 00:00:00 | |
| PU1XMG-16 | 2026-09-02 23:34:21 | -22.80789 | -43.25060 | 58° | 4km/h | 265m | 5.2m/s | 0°C | 0% | 0hPa | 0V | 00:00:00 | 00:00:00 | 00:00:00 |